<?xml version="1.0" encoding="UTF-8" standalone="no" ?>
<gpx xmlns="http://www.topografix.com/GPX/1/1" xmlns:xsi="http://www.w3.org/2001/XMLSchema-instance" xsi:schemaLocation="http://www.topografix.com/GPX/1/1 http://www.topografix.com/GPX/1/1/gpx.xsd" version="1.1" creator="VisuGPX - https://www.visugpx.com">
  <metadata>
    <name>Au cœur du Comtat</name>
    <desc><![CDATA[Balade au départ de Venasque]]></desc>
  </metadata>
  <trk>
    <name><![CDATA[2021-01-18 13-57-20]]></name>
    <trkseg>
      <trkpt lat="43.9949" lon="5.14791">
        <ele>308.24</ele>
        <time>2021-01-18T08:28:42Z</time>
      </trkpt>
      <trkpt lat="43.9949" lon="5.14791">
        <ele>308.24</ele>
        <time>2021-01-18T08:28:43Z</time>
      </trkpt>
      <trkpt lat="43.99491" lon="5.14794">
        <ele>307.76</ele>
        <time>2021-01-18T08:29:10Z</time>
      </trkpt>
      <trkpt lat="43.99488" lon="5.14791">
        <ele>307.28</ele>
        <time>2021-01-18T08:29:36Z</time>
      </trkpt>
      <trkpt lat="43.99483" lon="5.14795">
        <ele>307.76</ele>
        <time>2021-01-18T08:30:05Z</time>
      </trkpt>
      <trkpt lat="43.99483" lon="5.14804">
        <ele>307.76</ele>
        <time>2021-01-18T08:30:39Z</time>
      </trkpt>
      <trkpt lat="43.99482" lon="5.14804">
        <ele>307.76</ele>
        <time>2021-01-18T08:31:06Z</time>
      </trkpt>
      <trkpt lat="43.9948" lon="5.14801">
        <ele>307.76</ele>
        <time>2021-01-18T08:31:31Z</time>
      </trkpt>
      <trkpt lat="43.99474" lon="5.14791">
        <ele>307.76</ele>
        <time>2021-01-18T08:31:48Z</time>
      </trkpt>
      <trkpt lat="43.99475" lon="5.14787">
        <ele>306.32</ele>
        <time>2021-01-18T08:31:53Z</time>
      </trkpt>
      <trkpt lat="43.9949" lon="5.14772">
        <ele>305.84</ele>
        <time>2021-01-18T08:32:14Z</time>
      </trkpt>
      <trkpt lat="43.99501" lon="5.14771">
        <ele>305.84</ele>
        <time>2021-01-18T08:32:26Z</time>
      </trkpt>
      <trkpt lat="43.99499" lon="5.14752">
        <ele>305.84</ele>
        <time>2021-01-18T08:32:38Z</time>
      </trkpt>
      <trkpt lat="43.99512" lon="5.14735">
        <ele>303.43</ele>
        <time>2021-01-18T08:32:55Z</time>
      </trkpt>
      <trkpt lat="43.99514" lon="5.14734">
        <ele>303.43</ele>
        <time>2021-01-18T08:32:57Z</time>
      </trkpt>
      <trkpt lat="43.9953" lon="5.14722">
        <ele>299.59</ele>
        <time>2021-01-18T08:33:18Z</time>
      </trkpt>
      <trkpt lat="43.99535" lon="5.1471">
        <ele>298.63</ele>
        <time>2021-01-18T08:33:26Z</time>
      </trkpt>
      <trkpt lat="43.99546" lon="5.14706">
        <ele>298.15</ele>
        <time>2021-01-18T08:33:34Z</time>
      </trkpt>
      <trkpt lat="43.99593" lon="5.14677">
        <ele>295.26</ele>
        <time>2021-01-18T08:34:21Z</time>
      </trkpt>
      <trkpt lat="43.99606" lon="5.14662">
        <ele>293.34</ele>
        <time>2021-01-18T08:34:43Z</time>
      </trkpt>
      <trkpt lat="43.99612" lon="5.14658">
        <ele>293.34</ele>
        <time>2021-01-18T08:34:48Z</time>
      </trkpt>
      <trkpt lat="43.99619" lon="5.14656">
        <ele>292.38</ele>
        <time>2021-01-18T08:34:53Z</time>
      </trkpt>
      <trkpt lat="43.99644" lon="5.14645">
        <ele>291.42</ele>
        <time>2021-01-18T08:35:06Z</time>
      </trkpt>
      <trkpt lat="43.99651" lon="5.14641">
        <ele>290.46</ele>
        <time>2021-01-18T08:35:12Z</time>
      </trkpt>
      <trkpt lat="43.99661" lon="5.14627">
        <ele>288.53</ele>
        <time>2021-01-18T08:35:26Z</time>
      </trkpt>
      <trkpt lat="43.99669" lon="5.14622">
        <ele>288.53</ele>
        <time>2021-01-18T08:35:32Z</time>
      </trkpt>
      <trkpt lat="43.99683" lon="5.14612">
        <ele>288.53</ele>
        <time>2021-01-18T08:35:42Z</time>
      </trkpt>
      <trkpt lat="43.9969" lon="5.14605">
        <ele>288.05</ele>
        <time>2021-01-18T08:35:48Z</time>
      </trkpt>
      <trkpt lat="43.9969" lon="5.14597">
        <ele>287.57</ele>
        <time>2021-01-18T08:35:53Z</time>
      </trkpt>
      <trkpt lat="43.9969" lon="5.14585">
        <ele>287.57</ele>
        <time>2021-01-18T08:35:59Z</time>
      </trkpt>
      <trkpt lat="43.99687" lon="5.1458">
        <ele>287.09</ele>
        <time>2021-01-18T08:36:01Z</time>
      </trkpt>
      <trkpt lat="43.99687" lon="5.14559">
        <ele>286.13</ele>
        <time>2021-01-18T08:36:18Z</time>
      </trkpt>
      <trkpt lat="43.99693" lon="5.14574">
        <ele>285.17</ele>
        <time>2021-01-18T08:36:32Z</time>
      </trkpt>
      <trkpt lat="43.9969" lon="5.14585">
        <ele>283.73</ele>
        <time>2021-01-18T08:36:44Z</time>
      </trkpt>
      <trkpt lat="43.99688" lon="5.14586">
        <ele>283.73</ele>
        <time>2021-01-18T08:36:45Z</time>
      </trkpt>
      <trkpt lat="43.99684" lon="5.14607">
        <ele>282.77</ele>
        <time>2021-01-18T08:36:56Z</time>
      </trkpt>
      <trkpt lat="43.99685" lon="5.14621">
        <ele>281.8</ele>
        <time>2021-01-18T08:37:04Z</time>
      </trkpt>
      <trkpt lat="43.99689" lon="5.1462">
        <ele>279.88</ele>
        <time>2021-01-18T08:37:14Z</time>
      </trkpt>
      <trkpt lat="43.99702" lon="5.14608">
        <ele>277.48</ele>
        <time>2021-01-18T08:37:27Z</time>
      </trkpt>
      <trkpt lat="43.99711" lon="5.14595">
        <ele>274.11</ele>
        <time>2021-01-18T08:37:40Z</time>
      </trkpt>
      <trkpt lat="43.99727" lon="5.14579">
        <ele>271.23</ele>
        <time>2021-01-18T08:37:55Z</time>
      </trkpt>
      <trkpt lat="43.99734" lon="5.1457">
        <ele>270.75</ele>
        <time>2021-01-18T08:38:03Z</time>
      </trkpt>
      <trkpt lat="43.99743" lon="5.14553">
        <ele>268.83</ele>
        <time>2021-01-18T08:38:16Z</time>
      </trkpt>
      <trkpt lat="43.99747" lon="5.14548">
        <ele>267.38</ele>
        <time>2021-01-18T08:38:21Z</time>
      </trkpt>
      <trkpt lat="43.99757" lon="5.1454">
        <ele>265.46</ele>
        <time>2021-01-18T08:38:32Z</time>
      </trkpt>
      <trkpt lat="43.99766" lon="5.14534">
        <ele>264.5</ele>
        <time>2021-01-18T08:38:40Z</time>
      </trkpt>
      <trkpt lat="43.99775" lon="5.14531">
        <ele>263.06</ele>
        <time>2021-01-18T08:38:50Z</time>
      </trkpt>
      <trkpt lat="43.99784" lon="5.14526">
        <ele>261.62</ele>
        <time>2021-01-18T08:38:57Z</time>
      </trkpt>
      <trkpt lat="43.9979" lon="5.14523">
        <ele>261.14</ele>
        <time>2021-01-18T08:39:01Z</time>
      </trkpt>
      <trkpt lat="43.99804" lon="5.14514">
        <ele>258.25</ele>
        <time>2021-01-18T08:39:15Z</time>
      </trkpt>
      <trkpt lat="43.99817" lon="5.14503">
        <ele>255.37</ele>
        <time>2021-01-18T08:39:32Z</time>
      </trkpt>
      <trkpt lat="43.99823" lon="5.14499">
        <ele>253.93</ele>
        <time>2021-01-18T08:39:38Z</time>
      </trkpt>
      <trkpt lat="43.99829" lon="5.14494">
        <ele>252.96</ele>
        <time>2021-01-18T08:39:45Z</time>
      </trkpt>
      <trkpt lat="43.99835" lon="5.14487">
        <ele>250.08</ele>
        <time>2021-01-18T08:39:57Z</time>
      </trkpt>
      <trkpt lat="43.99846" lon="5.14483">
        <ele>247.68</ele>
        <time>2021-01-18T08:40:10Z</time>
      </trkpt>
      <trkpt lat="43.99855" lon="5.14476">
        <ele>244.79</ele>
        <time>2021-01-18T08:40:26Z</time>
      </trkpt>
      <trkpt lat="43.99864" lon="5.1447">
        <ele>241.43</ele>
        <time>2021-01-18T08:40:40Z</time>
      </trkpt>
      <trkpt lat="43.99875" lon="5.14459">
        <ele>239.02</ele>
        <time>2021-01-18T08:40:55Z</time>
      </trkpt>
      <trkpt lat="43.99885" lon="5.14445">
        <ele>235.66</ele>
        <time>2021-01-18T08:41:12Z</time>
      </trkpt>
      <trkpt lat="43.99892" lon="5.14435">
        <ele>232.78</ele>
        <time>2021-01-18T08:41:25Z</time>
      </trkpt>
      <trkpt lat="43.99894" lon="5.14415">
        <ele>229.41</ele>
        <time>2021-01-18T08:41:42Z</time>
      </trkpt>
      <trkpt lat="43.99893" lon="5.14402">
        <ele>226.53</ele>
        <time>2021-01-18T08:41:55Z</time>
      </trkpt>
      <trkpt lat="43.99893" lon="5.14384">
        <ele>223.16</ele>
        <time>2021-01-18T08:42:12Z</time>
      </trkpt>
      <trkpt lat="43.99889" lon="5.14364">
        <ele>220.28</ele>
        <time>2021-01-18T08:42:29Z</time>
      </trkpt>
      <trkpt lat="43.9988" lon="5.14343">
        <ele>216.91</ele>
        <time>2021-01-18T08:42:47Z</time>
      </trkpt>
      <trkpt lat="43.99868" lon="5.14321">
        <ele>214.03</ele>
        <time>2021-01-18T08:43:08Z</time>
      </trkpt>
      <trkpt lat="43.99858" lon="5.14309">
        <ele>212.59</ele>
        <time>2021-01-18T08:43:24Z</time>
      </trkpt>
      <trkpt lat="43.99846" lon="5.14297">
        <ele>211.15</ele>
        <time>2021-01-18T08:43:40Z</time>
      </trkpt>
      <trkpt lat="43.99836" lon="5.14286">
        <ele>208.74</ele>
        <time>2021-01-18T08:43:54Z</time>
      </trkpt>
      <trkpt lat="43.99821" lon="5.14266">
        <ele>206.82</ele>
        <time>2021-01-18T08:44:16Z</time>
      </trkpt>
      <trkpt lat="43.99815" lon="5.14248">
        <ele>203.46</ele>
        <time>2021-01-18T08:44:32Z</time>
      </trkpt>
      <trkpt lat="43.99816" lon="5.14246">
        <ele>202.98</ele>
        <time>2021-01-18T08:44:35Z</time>
      </trkpt>
      <trkpt lat="43.99815" lon="5.14237">
        <ele>202.49</ele>
        <time>2021-01-18T08:44:50Z</time>
      </trkpt>
      <trkpt lat="43.99811" lon="5.14235">
        <ele>202.49</ele>
        <time>2021-01-18T08:45:09Z</time>
      </trkpt>
      <trkpt lat="43.99812" lon="5.14236">
        <ele>202.01</ele>
        <time>2021-01-18T08:45:39Z</time>
      </trkpt>
      <trkpt lat="43.99815" lon="5.14237">
        <ele>202.49</ele>
        <time>2021-01-18T08:46:02Z</time>
      </trkpt>
      <trkpt lat="43.99814" lon="5.14239">
        <ele>203.94</ele>
        <time>2021-01-18T08:46:29Z</time>
      </trkpt>
      <trkpt lat="43.99817" lon="5.14236">
        <ele>202.98</ele>
        <time>2021-01-18T08:46:59Z</time>
      </trkpt>
      <trkpt lat="43.99814" lon="5.14237">
        <ele>202.98</ele>
        <time>2021-01-18T08:47:24Z</time>
      </trkpt>
      <trkpt lat="43.99814" lon="5.14235">
        <ele>202.98</ele>
        <time>2021-01-18T08:47:49Z</time>
      </trkpt>
      <trkpt lat="43.99815" lon="5.14235">
        <ele>203.94</ele>
        <time>2021-01-18T08:48:21Z</time>
      </trkpt>
      <trkpt lat="43.99812" lon="5.14234">
        <ele>204.42</ele>
        <time>2021-01-18T08:48:48Z</time>
      </trkpt>
      <trkpt lat="43.99803" lon="5.14228">
        <ele>203.94</ele>
        <time>2021-01-18T08:48:56Z</time>
      </trkpt>
      <trkpt lat="43.99789" lon="5.14212">
        <ele>201.53</ele>
        <time>2021-01-18T08:49:12Z</time>
      </trkpt>
      <trkpt lat="43.99782" lon="5.1418">
        <ele>199.61</ele>
        <time>2021-01-18T08:49:31Z</time>
      </trkpt>
      <trkpt lat="43.99759" lon="5.1417">
        <ele>200.57</ele>
        <time>2021-01-18T08:49:50Z</time>
      </trkpt>
      <trkpt lat="43.99746" lon="5.14159">
        <ele>200.57</ele>
        <time>2021-01-18T08:50:04Z</time>
      </trkpt>
      <trkpt lat="43.99745" lon="5.14157">
        <ele>200.57</ele>
        <time>2021-01-18T08:50:06Z</time>
      </trkpt>
      <trkpt lat="43.99754" lon="5.14128">
        <ele>199.13</ele>
        <time>2021-01-18T08:50:25Z</time>
      </trkpt>
      <trkpt lat="43.99759" lon="5.14107">
        <ele>197.21</ele>
        <time>2021-01-18T08:50:38Z</time>
      </trkpt>
      <trkpt lat="43.99762" lon="5.14082">
        <ele>195.77</ele>
        <time>2021-01-18T08:50:54Z</time>
      </trkpt>
      <trkpt lat="43.99764" lon="5.14077">
        <ele>195.77</ele>
        <time>2021-01-18T08:50:57Z</time>
      </trkpt>
      <trkpt lat="43.9977" lon="5.1407">
        <ele>195.28</ele>
        <time>2021-01-18T08:51:03Z</time>
      </trkpt>
      <trkpt lat="43.9979" lon="5.14065">
        <ele>194.8</ele>
        <time>2021-01-18T08:51:19Z</time>
      </trkpt>
      <trkpt lat="43.99812" lon="5.14067">
        <ele>194.32</ele>
        <time>2021-01-18T08:51:41Z</time>
      </trkpt>
      <trkpt lat="43.99819" lon="5.14071">
        <ele>194.32</ele>
        <time>2021-01-18T08:51:47Z</time>
      </trkpt>
      <trkpt lat="43.99824" lon="5.14072">
        <ele>194.32</ele>
        <time>2021-01-18T08:51:51Z</time>
      </trkpt>
      <trkpt lat="43.99843" lon="5.14079">
        <ele>193.36</ele>
        <time>2021-01-18T08:52:06Z</time>
      </trkpt>
      <trkpt lat="43.99845" lon="5.1408">
        <ele>193.36</ele>
        <time>2021-01-18T08:52:08Z</time>
      </trkpt>
      <trkpt lat="43.99852" lon="5.14079">
        <ele>193.84</ele>
        <time>2021-01-18T08:52:14Z</time>
      </trkpt>
      <trkpt lat="43.99864" lon="5.14067">
        <ele>196.73</ele>
        <time>2021-01-18T08:52:32Z</time>
      </trkpt>
      <trkpt lat="43.99873" lon="5.1406">
        <ele>198.17</ele>
        <time>2021-01-18T08:52:50Z</time>
      </trkpt>
      <trkpt lat="43.99887" lon="5.14048">
        <ele>200.57</ele>
        <time>2021-01-18T08:53:07Z</time>
      </trkpt>
      <trkpt lat="43.999" lon="5.14044">
        <ele>202.98</ele>
        <time>2021-01-18T08:53:22Z</time>
      </trkpt>
      <trkpt lat="43.99914" lon="5.14041">
        <ele>205.86</ele>
        <time>2021-01-18T08:53:41Z</time>
      </trkpt>
      <trkpt lat="43.99927" lon="5.14038">
        <ele>208.26</ele>
        <time>2021-01-18T08:53:55Z</time>
      </trkpt>
      <trkpt lat="43.99938" lon="5.14035">
        <ele>211.63</ele>
        <time>2021-01-18T08:54:10Z</time>
      </trkpt>
      <trkpt lat="43.99947" lon="5.14042">
        <ele>213.55</ele>
        <time>2021-01-18T08:54:27Z</time>
      </trkpt>
      <trkpt lat="43.99949" lon="5.14043">
        <ele>214.03</ele>
        <time>2021-01-18T08:54:30Z</time>
      </trkpt>
      <trkpt lat="43.99959" lon="5.14048">
        <ele>216.43</ele>
        <time>2021-01-18T08:54:45Z</time>
      </trkpt>
      <trkpt lat="43.99965" lon="5.14042">
        <ele>219.8</ele>
        <time>2021-01-18T08:54:59Z</time>
      </trkpt>
      <trkpt lat="43.99968" lon="5.14035">
        <ele>219.32</ele>
        <time>2021-01-18T08:55:24Z</time>
      </trkpt>
      <trkpt lat="43.99968" lon="5.14038">
        <ele>218.84</ele>
        <time>2021-01-18T08:55:52Z</time>
      </trkpt>
      <trkpt lat="43.99968" lon="5.14043">
        <ele>218.84</ele>
        <time>2021-01-18T08:56:21Z</time>
      </trkpt>
      <trkpt lat="43.99968" lon="5.14041">
        <ele>218.84</ele>
        <time>2021-01-18T08:56:55Z</time>
      </trkpt>
      <trkpt lat="43.99968" lon="5.14036">
        <ele>218.84</ele>
        <time>2021-01-18T08:57:27Z</time>
      </trkpt>
      <trkpt lat="43.99968" lon="5.14029">
        <ele>218.84</ele>
        <time>2021-01-18T08:57:54Z</time>
      </trkpt>
      <trkpt lat="43.99968" lon="5.14035">
        <ele>219.8</ele>
        <time>2021-01-18T08:58:18Z</time>
      </trkpt>
      <trkpt lat="43.99969" lon="5.14036">
        <ele>220.28</ele>
        <time>2021-01-18T08:58:42Z</time>
      </trkpt>
      <trkpt lat="43.99957" lon="5.14021">
        <ele>223.16</ele>
        <time>2021-01-18T08:58:59Z</time>
      </trkpt>
      <trkpt lat="43.99956" lon="5.1402">
        <ele>223.16</ele>
        <time>2021-01-18T08:59:00Z</time>
      </trkpt>
      <trkpt lat="43.9995" lon="5.14012">
        <ele>224.12</ele>
        <time>2021-01-18T08:59:11Z</time>
      </trkpt>
      <trkpt lat="43.99949" lon="5.14011">
        <ele>224.12</ele>
        <time>2021-01-18T08:59:12Z</time>
      </trkpt>
      <trkpt lat="43.99943" lon="5.14008">
        <ele>224.12</ele>
        <time>2021-01-18T08:59:17Z</time>
      </trkpt>
      <trkpt lat="43.99933" lon="5.13994">
        <ele>224.61</ele>
        <time>2021-01-18T08:59:30Z</time>
      </trkpt>
      <trkpt lat="43.99926" lon="5.13977">
        <ele>224.61</ele>
        <time>2021-01-18T08:59:42Z</time>
      </trkpt>
      <trkpt lat="43.99922" lon="5.13962">
        <ele>225.57</ele>
        <time>2021-01-18T08:59:56Z</time>
      </trkpt>
      <trkpt lat="43.99925" lon="5.13933">
        <ele>228.45</ele>
        <time>2021-01-18T09:00:20Z</time>
      </trkpt>
      <trkpt lat="43.99924" lon="5.13913">
        <ele>231.33</ele>
        <time>2021-01-18T09:00:38Z</time>
      </trkpt>
      <trkpt lat="43.9992" lon="5.13908">
        <ele>233.74</ele>
        <time>2021-01-18T09:00:54Z</time>
      </trkpt>
      <trkpt lat="43.99914" lon="5.13919">
        <ele>235.18</ele>
        <time>2021-01-18T09:01:08Z</time>
      </trkpt>
      <trkpt lat="43.99908" lon="5.13929">
        <ele>236.62</ele>
        <time>2021-01-18T09:01:20Z</time>
      </trkpt>
      <trkpt lat="43.99894" lon="5.13942">
        <ele>237.58</ele>
        <time>2021-01-18T09:01:39Z</time>
      </trkpt>
      <trkpt lat="43.99876" lon="5.13948">
        <ele>239.51</ele>
        <time>2021-01-18T09:01:59Z</time>
      </trkpt>
      <trkpt lat="43.99867" lon="5.13942">
        <ele>241.91</ele>
        <time>2021-01-18T09:02:16Z</time>
      </trkpt>
      <trkpt lat="43.99854" lon="5.13934">
        <ele>243.83</ele>
        <time>2021-01-18T09:02:34Z</time>
      </trkpt>
      <trkpt lat="43.9984" lon="5.13928">
        <ele>246.23</ele>
        <time>2021-01-18T09:02:55Z</time>
      </trkpt>
      <trkpt lat="43.9983" lon="5.13925">
        <ele>247.68</ele>
        <time>2021-01-18T09:03:07Z</time>
      </trkpt>
      <trkpt lat="43.99821" lon="5.13922">
        <ele>248.64</ele>
        <time>2021-01-18T09:03:16Z</time>
      </trkpt>
      <trkpt lat="43.99811" lon="5.13919">
        <ele>249.6</ele>
        <time>2021-01-18T09:03:29Z</time>
      </trkpt>
      <trkpt lat="43.99792" lon="5.13917">
        <ele>252.48</ele>
        <time>2021-01-18T09:03:49Z</time>
      </trkpt>
      <trkpt lat="43.9978" lon="5.13917">
        <ele>254.89</ele>
        <time>2021-01-18T09:04:08Z</time>
      </trkpt>
      <trkpt lat="43.99769" lon="5.13913">
        <ele>257.77</ele>
        <time>2021-01-18T09:04:26Z</time>
      </trkpt>
      <trkpt lat="43.99758" lon="5.13911">
        <ele>259.69</ele>
        <time>2021-01-18T09:04:45Z</time>
      </trkpt>
      <trkpt lat="43.99743" lon="5.13904">
        <ele>262.58</ele>
        <time>2021-01-18T09:05:03Z</time>
      </trkpt>
      <trkpt lat="43.99727" lon="5.13895">
        <ele>264.5</ele>
        <time>2021-01-18T09:05:20Z</time>
      </trkpt>
      <trkpt lat="43.99706" lon="5.13887">
        <ele>266.9</ele>
        <time>2021-01-18T09:05:41Z</time>
      </trkpt>
      <trkpt lat="43.9969" lon="5.13875">
        <ele>268.83</ele>
        <time>2021-01-18T09:06:01Z</time>
      </trkpt>
      <trkpt lat="43.99678" lon="5.1386">
        <ele>271.23</ele>
        <time>2021-01-18T09:06:19Z</time>
      </trkpt>
      <trkpt lat="43.99665" lon="5.13846">
        <ele>272.19</ele>
        <time>2021-01-18T09:06:38Z</time>
      </trkpt>
      <trkpt lat="43.99647" lon="5.13835">
        <ele>274.11</ele>
        <time>2021-01-18T09:06:58Z</time>
      </trkpt>
      <trkpt lat="43.99638" lon="5.13823">
        <ele>275.07</ele>
        <time>2021-01-18T09:07:13Z</time>
      </trkpt>
      <trkpt lat="43.9963" lon="5.13804">
        <ele>276.52</ele>
        <time>2021-01-18T09:07:32Z</time>
      </trkpt>
      <trkpt lat="43.99619" lon="5.13784">
        <ele>278.44</ele>
        <time>2021-01-18T09:07:52Z</time>
      </trkpt>
      <trkpt lat="43.99608" lon="5.13769">
        <ele>280.36</ele>
        <time>2021-01-18T09:08:09Z</time>
      </trkpt>
      <trkpt lat="43.99608" lon="5.13756">
        <ele>281.8</ele>
        <time>2021-01-18T09:08:21Z</time>
      </trkpt>
      <trkpt lat="43.99609" lon="5.13755">
        <ele>280.84</ele>
        <time>2021-01-18T09:08:47Z</time>
      </trkpt>
      <trkpt lat="43.99607" lon="5.13754">
        <ele>281.32</ele>
        <time>2021-01-18T09:09:20Z</time>
      </trkpt>
      <trkpt lat="43.99607" lon="5.13752">
        <ele>281.32</ele>
        <time>2021-01-18T09:09:55Z</time>
      </trkpt>
      <trkpt lat="43.99607" lon="5.13753">
        <ele>280.84</ele>
        <time>2021-01-18T09:10:30Z</time>
      </trkpt>
      <trkpt lat="43.99606" lon="5.13753">
        <ele>280.84</ele>
        <time>2021-01-18T09:11:10Z</time>
      </trkpt>
      <trkpt lat="43.99606" lon="5.13754">
        <ele>280.84</ele>
        <time>2021-01-18T09:12:18Z</time>
      </trkpt>
      <trkpt lat="43.99607" lon="5.13755">
        <ele>280.84</ele>
        <time>2021-01-18T09:13:16Z</time>
      </trkpt>
      <trkpt lat="43.99606" lon="5.13754">
        <ele>280.84</ele>
        <time>2021-01-18T09:13:49Z</time>
      </trkpt>
      <trkpt lat="43.99605" lon="5.13752">
        <ele>280.84</ele>
        <time>2021-01-18T09:14:21Z</time>
      </trkpt>
      <trkpt lat="43.99605" lon="5.13751">
        <ele>280.84</ele>
        <time>2021-01-18T09:14:57Z</time>
      </trkpt>
      <trkpt lat="43.99605" lon="5.13752">
        <ele>280.84</ele>
        <time>2021-01-18T09:15:32Z</time>
      </trkpt>
      <trkpt lat="43.99605" lon="5.13753">
        <ele>280.84</ele>
        <time>2021-01-18T09:16:04Z</time>
      </trkpt>
      <trkpt lat="43.99606" lon="5.13755">
        <ele>280.84</ele>
        <time>2021-01-18T09:16:40Z</time>
      </trkpt>
      <trkpt lat="43.99607" lon="5.13756">
        <ele>280.84</ele>
        <time>2021-01-18T09:17:12Z</time>
      </trkpt>
      <trkpt lat="43.99605" lon="5.13755">
        <ele>280.84</ele>
        <time>2021-01-18T09:17:34Z</time>
      </trkpt>
      <trkpt lat="43.99606" lon="5.13755">
        <ele>280.84</ele>
        <time>2021-01-18T09:17:59Z</time>
      </trkpt>
      <trkpt lat="43.99608" lon="5.13757">
        <ele>280.84</ele>
        <time>2021-01-18T09:18:30Z</time>
      </trkpt>
      <trkpt lat="43.99612" lon="5.13754">
        <ele>280.84</ele>
        <time>2021-01-18T09:18:58Z</time>
      </trkpt>
      <trkpt lat="43.99608" lon="5.13757">
        <ele>280.84</ele>
        <time>2021-01-18T09:19:34Z</time>
      </trkpt>
      <trkpt lat="43.99605" lon="5.13756">
        <ele>280.84</ele>
        <time>2021-01-18T09:20:00Z</time>
      </trkpt>
      <trkpt lat="43.99603" lon="5.1375">
        <ele>280.84</ele>
        <time>2021-01-18T09:20:27Z</time>
      </trkpt>
      <trkpt lat="43.99593" lon="5.13729">
        <ele>280.84</ele>
        <time>2021-01-18T09:20:50Z</time>
      </trkpt>
      <trkpt lat="43.99592" lon="5.13728">
        <ele>280.84</ele>
        <time>2021-01-18T09:20:51Z</time>
      </trkpt>
      <trkpt lat="43.9959" lon="5.13724">
        <ele>282.77</ele>
        <time>2021-01-18T09:20:55Z</time>
      </trkpt>
      <trkpt lat="43.99577" lon="5.13709">
        <ele>283.25</ele>
        <time>2021-01-18T09:21:13Z</time>
      </trkpt>
      <trkpt lat="43.99565" lon="5.13692">
        <ele>283.25</ele>
        <time>2021-01-18T09:21:29Z</time>
      </trkpt>
      <trkpt lat="43.99554" lon="5.13673">
        <ele>283.73</ele>
        <time>2021-01-18T09:21:46Z</time>
      </trkpt>
      <trkpt lat="43.99542" lon="5.13653">
        <ele>284.21</ele>
        <time>2021-01-18T09:22:04Z</time>
      </trkpt>
      <trkpt lat="43.99528" lon="5.13627">
        <ele>284.69</ele>
        <time>2021-01-18T09:22:27Z</time>
      </trkpt>
      <trkpt lat="43.99527" lon="5.13626">
        <ele>284.69</ele>
        <time>2021-01-18T09:22:28Z</time>
      </trkpt>
      <trkpt lat="43.99516" lon="5.13612">
        <ele>285.17</ele>
        <time>2021-01-18T09:22:40Z</time>
      </trkpt>
      <trkpt lat="43.995" lon="5.13589">
        <ele>285.65</ele>
        <time>2021-01-18T09:22:59Z</time>
      </trkpt>
      <trkpt lat="43.99488" lon="5.13571">
        <ele>286.13</ele>
        <time>2021-01-18T09:23:13Z</time>
      </trkpt>
      <trkpt lat="43.99477" lon="5.13557">
        <ele>286.13</ele>
        <time>2021-01-18T09:23:24Z</time>
      </trkpt>
      <trkpt lat="43.99462" lon="5.13537">
        <ele>286.13</ele>
        <time>2021-01-18T09:23:41Z</time>
      </trkpt>
      <trkpt lat="43.99448" lon="5.13521">
        <ele>287.09</ele>
        <time>2021-01-18T09:23:56Z</time>
      </trkpt>
      <trkpt lat="43.99434" lon="5.13499">
        <ele>288.05</ele>
        <time>2021-01-18T09:24:15Z</time>
      </trkpt>
      <trkpt lat="43.99428" lon="5.13482">
        <ele>287.57</ele>
        <time>2021-01-18T09:24:27Z</time>
      </trkpt>
      <trkpt lat="43.99421" lon="5.13462">
        <ele>288.53</ele>
        <time>2021-01-18T09:24:40Z</time>
      </trkpt>
      <trkpt lat="43.99415" lon="5.1344">
        <ele>289.01</ele>
        <time>2021-01-18T09:24:57Z</time>
      </trkpt>
      <trkpt lat="43.99404" lon="5.13408">
        <ele>289.49</ele>
        <time>2021-01-18T09:25:19Z</time>
      </trkpt>
      <trkpt lat="43.99395" lon="5.13376">
        <ele>289.97</ele>
        <time>2021-01-18T09:25:42Z</time>
      </trkpt>
      <trkpt lat="43.9939" lon="5.13347">
        <ele>290.46</ele>
        <time>2021-01-18T09:26:03Z</time>
      </trkpt>
      <trkpt lat="43.99385" lon="5.13318">
        <ele>289.97</ele>
        <time>2021-01-18T09:26:25Z</time>
      </trkpt>
      <trkpt lat="43.99375" lon="5.13287">
        <ele>289.97</ele>
        <time>2021-01-18T09:26:48Z</time>
      </trkpt>
      <trkpt lat="43.99362" lon="5.13263">
        <ele>289.49</ele>
        <time>2021-01-18T09:27:11Z</time>
      </trkpt>
      <trkpt lat="43.99343" lon="5.13249">
        <ele>289.01</ele>
        <time>2021-01-18T09:27:31Z</time>
      </trkpt>
      <trkpt lat="43.99326" lon="5.13239">
        <ele>286.61</ele>
        <time>2021-01-18T09:27:51Z</time>
      </trkpt>
      <trkpt lat="43.99311" lon="5.13229">
        <ele>283.73</ele>
        <time>2021-01-18T09:28:09Z</time>
      </trkpt>
      <trkpt lat="43.99287" lon="5.13218">
        <ele>281.32</ele>
        <time>2021-01-18T09:28:33Z</time>
      </trkpt>
      <trkpt lat="43.99268" lon="5.13198">
        <ele>279.88</ele>
        <time>2021-01-18T09:28:55Z</time>
      </trkpt>
      <trkpt lat="43.99253" lon="5.13178">
        <ele>278.92</ele>
        <time>2021-01-18T09:29:17Z</time>
      </trkpt>
      <trkpt lat="43.99236" lon="5.13158">
        <ele>276.04</ele>
        <time>2021-01-18T09:29:38Z</time>
      </trkpt>
      <trkpt lat="43.99226" lon="5.13149">
        <ele>273.15</ele>
        <time>2021-01-18T09:29:53Z</time>
      </trkpt>
      <trkpt lat="43.99204" lon="5.13144">
        <ele>269.79</ele>
        <time>2021-01-18T09:30:13Z</time>
      </trkpt>
      <trkpt lat="43.99184" lon="5.1314">
        <ele>269.31</ele>
        <time>2021-01-18T09:30:33Z</time>
      </trkpt>
      <trkpt lat="43.99172" lon="5.13113">
        <ele>269.79</ele>
        <time>2021-01-18T09:30:52Z</time>
      </trkpt>
      <trkpt lat="43.99167" lon="5.1311">
        <ele>270.75</ele>
        <time>2021-01-18T09:31:06Z</time>
      </trkpt>
      <trkpt lat="43.99167" lon="5.1311">
        <ele>270.75</ele>
        <time>2021-01-18T09:31:32Z</time>
      </trkpt>
      <trkpt lat="43.99164" lon="5.13115">
        <ele>270.27</ele>
        <time>2021-01-18T09:32:07Z</time>
      </trkpt>
      <trkpt lat="43.99165" lon="5.13117">
        <ele>270.27</ele>
        <time>2021-01-18T09:32:38Z</time>
      </trkpt>
      <trkpt lat="43.99164" lon="5.13117">
        <ele>270.27</ele>
        <time>2021-01-18T09:33:12Z</time>
      </trkpt>
      <trkpt lat="43.99163" lon="5.13118">
        <ele>270.27</ele>
        <time>2021-01-18T09:33:43Z</time>
      </trkpt>
      <trkpt lat="43.99163" lon="5.13116">
        <ele>270.27</ele>
        <time>2021-01-18T09:34:11Z</time>
      </trkpt>
      <trkpt lat="43.99164" lon="5.13113">
        <ele>270.27</ele>
        <time>2021-01-18T09:34:42Z</time>
      </trkpt>
      <trkpt lat="43.99163" lon="5.13111">
        <ele>270.27</ele>
        <time>2021-01-18T09:35:07Z</time>
      </trkpt>
      <trkpt lat="43.99141" lon="5.1311">
        <ele>271.23</ele>
        <time>2021-01-18T09:35:24Z</time>
      </trkpt>
      <trkpt lat="43.99128" lon="5.13105">
        <ele>272.67</ele>
        <time>2021-01-18T09:35:42Z</time>
      </trkpt>
      <trkpt lat="43.9911" lon="5.13095">
        <ele>275.56</ele>
        <time>2021-01-18T09:36:02Z</time>
      </trkpt>
      <trkpt lat="43.99082" lon="5.13089">
        <ele>277</ele>
        <time>2021-01-18T09:36:25Z</time>
      </trkpt>
      <trkpt lat="43.99066" lon="5.13087">
        <ele>278.44</ele>
        <time>2021-01-18T09:36:45Z</time>
      </trkpt>
      <trkpt lat="43.99042" lon="5.13077">
        <ele>281.32</ele>
        <time>2021-01-18T09:37:07Z</time>
      </trkpt>
      <trkpt lat="43.9902" lon="5.13064">
        <ele>284.21</ele>
        <time>2021-01-18T09:37:29Z</time>
      </trkpt>
      <trkpt lat="43.99015" lon="5.13061">
        <ele>285.17</ele>
        <time>2021-01-18T09:37:37Z</time>
      </trkpt>
      <trkpt lat="43.99004" lon="5.13049">
        <ele>287.57</ele>
        <time>2021-01-18T09:37:50Z</time>
      </trkpt>
      <trkpt lat="43.98991" lon="5.13046">
        <ele>290.46</ele>
        <time>2021-01-18T09:38:04Z</time>
      </trkpt>
      <trkpt lat="43.98976" lon="5.13043">
        <ele>293.82</ele>
        <time>2021-01-18T09:38:20Z</time>
      </trkpt>
      <trkpt lat="43.98966" lon="5.13031">
        <ele>296.7</ele>
        <time>2021-01-18T09:38:37Z</time>
      </trkpt>
      <trkpt lat="43.98966" lon="5.13016">
        <ele>298.63</ele>
        <time>2021-01-18T09:38:52Z</time>
      </trkpt>
      <trkpt lat="43.98962" lon="5.12995">
        <ele>299.59</ele>
        <time>2021-01-18T09:39:09Z</time>
      </trkpt>
      <trkpt lat="43.98957" lon="5.12971">
        <ele>300.55</ele>
        <time>2021-01-18T09:39:29Z</time>
      </trkpt>
      <trkpt lat="43.98953" lon="5.12958">
        <ele>300.55</ele>
        <time>2021-01-18T09:39:45Z</time>
      </trkpt>
      <trkpt lat="43.98953" lon="5.12947">
        <ele>300.55</ele>
        <time>2021-01-18T09:40:05Z</time>
      </trkpt>
      <trkpt lat="43.98953" lon="5.12949">
        <ele>300.55</ele>
        <time>2021-01-18T09:40:27Z</time>
      </trkpt>
      <trkpt lat="43.98953" lon="5.12948">
        <ele>300.55</ele>
        <time>2021-01-18T09:40:51Z</time>
      </trkpt>
      <trkpt lat="43.98951" lon="5.12948">
        <ele>300.55</ele>
        <time>2021-01-18T09:41:18Z</time>
      </trkpt>
      <trkpt lat="43.98952" lon="5.12949">
        <ele>301.03</ele>
        <time>2021-01-18T09:41:52Z</time>
      </trkpt>
      <trkpt lat="43.98951" lon="5.1294">
        <ele>301.03</ele>
        <time>2021-01-18T09:42:14Z</time>
      </trkpt>
      <trkpt lat="43.98944" lon="5.12922">
        <ele>299.59</ele>
        <time>2021-01-18T09:42:32Z</time>
      </trkpt>
      <trkpt lat="43.98931" lon="5.12901">
        <ele>297.67</ele>
        <time>2021-01-18T09:42:52Z</time>
      </trkpt>
      <trkpt lat="43.9893" lon="5.12899">
        <ele>297.67</ele>
        <time>2021-01-18T09:42:53Z</time>
      </trkpt>
      <trkpt lat="43.98925" lon="5.12874">
        <ele>298.15</ele>
        <time>2021-01-18T09:43:12Z</time>
      </trkpt>
      <trkpt lat="43.98917" lon="5.12848">
        <ele>298.63</ele>
        <time>2021-01-18T09:43:31Z</time>
      </trkpt>
      <trkpt lat="43.9891" lon="5.12828">
        <ele>295.74</ele>
        <time>2021-01-18T09:43:46Z</time>
      </trkpt>
      <trkpt lat="43.98899" lon="5.12811">
        <ele>292.38</ele>
        <time>2021-01-18T09:44:03Z</time>
      </trkpt>
      <trkpt lat="43.98891" lon="5.12798">
        <ele>290.46</ele>
        <time>2021-01-18T09:44:15Z</time>
      </trkpt>
      <trkpt lat="43.98885" lon="5.12776">
        <ele>289.01</ele>
        <time>2021-01-18T09:44:29Z</time>
      </trkpt>
      <trkpt lat="43.9888" lon="5.12757">
        <ele>286.61</ele>
        <time>2021-01-18T09:44:44Z</time>
      </trkpt>
      <trkpt lat="43.98876" lon="5.12743">
        <ele>287.09</ele>
        <time>2021-01-18T09:44:54Z</time>
      </trkpt>
      <trkpt lat="43.98875" lon="5.12718">
        <ele>287.09</ele>
        <time>2021-01-18T09:45:07Z</time>
      </trkpt>
      <trkpt lat="43.98874" lon="5.12683">
        <ele>288.05</ele>
        <time>2021-01-18T09:45:25Z</time>
      </trkpt>
      <trkpt lat="43.98875" lon="5.12656">
        <ele>289.49</ele>
        <time>2021-01-18T09:45:42Z</time>
      </trkpt>
      <trkpt lat="43.98887" lon="5.12638">
        <ele>291.9</ele>
        <time>2021-01-18T09:45:58Z</time>
      </trkpt>
      <trkpt lat="43.98894" lon="5.12626">
        <ele>293.34</ele>
        <time>2021-01-18T09:46:09Z</time>
      </trkpt>
      <trkpt lat="43.98902" lon="5.12606">
        <ele>294.78</ele>
        <time>2021-01-18T09:46:26Z</time>
      </trkpt>
      <trkpt lat="43.98904" lon="5.12584">
        <ele>297.67</ele>
        <time>2021-01-18T09:46:42Z</time>
      </trkpt>
      <trkpt lat="43.98901" lon="5.12562">
        <ele>299.59</ele>
        <time>2021-01-18T09:46:57Z</time>
      </trkpt>
      <trkpt lat="43.98902" lon="5.12536">
        <ele>302.47</ele>
        <time>2021-01-18T09:47:13Z</time>
      </trkpt>
      <trkpt lat="43.98903" lon="5.12519">
        <ele>304.39</ele>
        <time>2021-01-18T09:47:27Z</time>
      </trkpt>
      <trkpt lat="43.98904" lon="5.12495">
        <ele>306.8</ele>
        <time>2021-01-18T09:47:49Z</time>
      </trkpt>
      <trkpt lat="43.98905" lon="5.12491">
        <ele>307.76</ele>
        <time>2021-01-18T09:48:08Z</time>
      </trkpt>
      <trkpt lat="43.98911" lon="5.12483">
        <ele>307.76</ele>
        <time>2021-01-18T09:48:31Z</time>
      </trkpt>
      <trkpt lat="43.98914" lon="5.12481">
        <ele>307.76</ele>
        <time>2021-01-18T09:48:50Z</time>
      </trkpt>
      <trkpt lat="43.98912" lon="5.1248">
        <ele>307.28</ele>
        <time>2021-01-18T09:49:19Z</time>
      </trkpt>
      <trkpt lat="43.98911" lon="5.12479">
        <ele>307.28</ele>
        <time>2021-01-18T09:49:44Z</time>
      </trkpt>
      <trkpt lat="43.98912" lon="5.12479">
        <ele>307.28</ele>
        <time>2021-01-18T09:50:10Z</time>
      </trkpt>
      <trkpt lat="43.98913" lon="5.12477">
        <ele>307.28</ele>
        <time>2021-01-18T09:50:42Z</time>
      </trkpt>
      <trkpt lat="43.98914" lon="5.12478">
        <ele>307.28</ele>
        <time>2021-01-18T09:51:11Z</time>
      </trkpt>
      <trkpt lat="43.989" lon="5.12478">
        <ele>307.28</ele>
        <time>2021-01-18T09:51:26Z</time>
      </trkpt>
      <trkpt lat="43.98883" lon="5.12459">
        <ele>306.8</ele>
        <time>2021-01-18T09:51:46Z</time>
      </trkpt>
      <trkpt lat="43.98871" lon="5.12446">
        <ele>305.84</ele>
        <time>2021-01-18T09:52:01Z</time>
      </trkpt>
      <trkpt lat="43.98858" lon="5.12432">
        <ele>305.84</ele>
        <time>2021-01-18T09:52:15Z</time>
      </trkpt>
      <trkpt lat="43.98842" lon="5.1241">
        <ele>305.36</ele>
        <time>2021-01-18T09:52:36Z</time>
      </trkpt>
      <trkpt lat="43.98831" lon="5.1239">
        <ele>305.36</ele>
        <time>2021-01-18T09:52:51Z</time>
      </trkpt>
      <trkpt lat="43.98817" lon="5.12364">
        <ele>305.36</ele>
        <time>2021-01-18T09:53:11Z</time>
      </trkpt>
      <trkpt lat="43.98805" lon="5.12341">
        <ele>304.88</ele>
        <time>2021-01-18T09:53:28Z</time>
      </trkpt>
      <trkpt lat="43.98794" lon="5.12309">
        <ele>304.39</ele>
        <time>2021-01-18T09:53:50Z</time>
      </trkpt>
      <trkpt lat="43.98785" lon="5.12282">
        <ele>304.39</ele>
        <time>2021-01-18T09:54:08Z</time>
      </trkpt>
      <trkpt lat="43.98777" lon="5.12256">
        <ele>304.39</ele>
        <time>2021-01-18T09:54:26Z</time>
      </trkpt>
      <trkpt lat="43.98773" lon="5.12228">
        <ele>304.88</ele>
        <time>2021-01-18T09:54:43Z</time>
      </trkpt>
      <trkpt lat="43.98766" lon="5.12189">
        <ele>305.84</ele>
        <time>2021-01-18T09:55:06Z</time>
      </trkpt>
      <trkpt lat="43.98761" lon="5.12168">
        <ele>305.84</ele>
        <time>2021-01-18T09:55:20Z</time>
      </trkpt>
      <trkpt lat="43.98757" lon="5.12161">
        <ele>305.84</ele>
        <time>2021-01-18T09:55:25Z</time>
      </trkpt>
      <trkpt lat="43.98748" lon="5.12133">
        <ele>304.39</ele>
        <time>2021-01-18T09:55:43Z</time>
      </trkpt>
      <trkpt lat="43.98742" lon="5.12118">
        <ele>302.47</ele>
        <time>2021-01-18T09:55:55Z</time>
      </trkpt>
      <trkpt lat="43.98739" lon="5.121">
        <ele>301.03</ele>
        <time>2021-01-18T09:56:06Z</time>
      </trkpt>
      <trkpt lat="43.98745" lon="5.12071">
        <ele>299.11</ele>
        <time>2021-01-18T09:56:22Z</time>
      </trkpt>
      <trkpt lat="43.98749" lon="5.12063">
        <ele>299.11</ele>
        <time>2021-01-18T09:56:35Z</time>
      </trkpt>
      <trkpt lat="43.98742" lon="5.12076">
        <ele>299.11</ele>
        <time>2021-01-18T09:56:50Z</time>
      </trkpt>
      <trkpt lat="43.98742" lon="5.1208">
        <ele>298.63</ele>
        <time>2021-01-18T09:56:52Z</time>
      </trkpt>
      <trkpt lat="43.98743" lon="5.12088">
        <ele>298.63</ele>
        <time>2021-01-18T09:56:57Z</time>
      </trkpt>
      <trkpt lat="43.98738" lon="5.12103">
        <ele>299.59</ele>
        <time>2021-01-18T09:57:15Z</time>
      </trkpt>
      <trkpt lat="43.98738" lon="5.12092">
        <ele>297.67</ele>
        <time>2021-01-18T09:57:40Z</time>
      </trkpt>
      <trkpt lat="43.98734" lon="5.12075">
        <ele>295.74</ele>
        <time>2021-01-18T09:57:55Z</time>
      </trkpt>
      <trkpt lat="43.98733" lon="5.12072">
        <ele>294.78</ele>
        <time>2021-01-18T09:57:59Z</time>
      </trkpt>
      <trkpt lat="43.98731" lon="5.12054">
        <ele>292.38</ele>
        <time>2021-01-18T09:58:13Z</time>
      </trkpt>
      <trkpt lat="43.98735" lon="5.12037">
        <ele>290.94</ele>
        <time>2021-01-18T09:58:34Z</time>
      </trkpt>
      <trkpt lat="43.98732" lon="5.12033">
        <ele>291.42</ele>
        <time>2021-01-18T09:59:04Z</time>
      </trkpt>
      <trkpt lat="43.98743" lon="5.12024">
        <ele>289.97</ele>
        <time>2021-01-18T09:59:24Z</time>
      </trkpt>
      <trkpt lat="43.9875" lon="5.12022">
        <ele>286.61</ele>
        <time>2021-01-18T09:59:38Z</time>
      </trkpt>
      <trkpt lat="43.98754" lon="5.12021">
        <ele>285.65</ele>
        <time>2021-01-18T09:59:42Z</time>
      </trkpt>
      <trkpt lat="43.98764" lon="5.12023">
        <ele>283.73</ele>
        <time>2021-01-18T10:00:01Z</time>
      </trkpt>
      <trkpt lat="43.98761" lon="5.12019">
        <ele>280.36</ele>
        <time>2021-01-18T10:00:19Z</time>
      </trkpt>
      <trkpt lat="43.98757" lon="5.12001">
        <ele>277</ele>
        <time>2021-01-18T10:00:36Z</time>
      </trkpt>
      <trkpt lat="43.98759" lon="5.11988">
        <ele>273.63</ele>
        <time>2021-01-18T10:00:50Z</time>
      </trkpt>
      <trkpt lat="43.98763" lon="5.11983">
        <ele>270.75</ele>
        <time>2021-01-18T10:01:05Z</time>
      </trkpt>
      <trkpt lat="43.98752" lon="5.11982">
        <ele>268.83</ele>
        <time>2021-01-18T10:01:28Z</time>
      </trkpt>
      <trkpt lat="43.9874" lon="5.11972">
        <ele>265.94</ele>
        <time>2021-01-18T10:01:47Z</time>
      </trkpt>
      <trkpt lat="43.98732" lon="5.1196">
        <ele>262.58</ele>
        <time>2021-01-18T10:02:02Z</time>
      </trkpt>
      <trkpt lat="43.98724" lon="5.11951">
        <ele>259.69</ele>
        <time>2021-01-18T10:02:14Z</time>
      </trkpt>
      <trkpt lat="43.98717" lon="5.1194">
        <ele>256.81</ele>
        <time>2021-01-18T10:02:26Z</time>
      </trkpt>
      <trkpt lat="43.98715" lon="5.11936">
        <ele>255.85</ele>
        <time>2021-01-18T10:02:29Z</time>
      </trkpt>
      <trkpt lat="43.98707" lon="5.11927">
        <ele>252.48</ele>
        <time>2021-01-18T10:02:43Z</time>
      </trkpt>
      <trkpt lat="43.98694" lon="5.11926">
        <ele>249.6</ele>
        <time>2021-01-18T10:03:00Z</time>
      </trkpt>
      <trkpt lat="43.98675" lon="5.11932">
        <ele>246.23</ele>
        <time>2021-01-18T10:03:19Z</time>
      </trkpt>
      <trkpt lat="43.98663" lon="5.11941">
        <ele>243.35</ele>
        <time>2021-01-18T10:03:32Z</time>
      </trkpt>
      <trkpt lat="43.98652" lon="5.11949">
        <ele>240.47</ele>
        <time>2021-01-18T10:03:45Z</time>
      </trkpt>
      <trkpt lat="43.9863" lon="5.11957">
        <ele>237.58</ele>
        <time>2021-01-18T10:04:05Z</time>
      </trkpt>
      <trkpt lat="43.98606" lon="5.11958">
        <ele>234.7</ele>
        <time>2021-01-18T10:04:27Z</time>
      </trkpt>
      <trkpt lat="43.98591" lon="5.11939">
        <ele>232.78</ele>
        <time>2021-01-18T10:04:47Z</time>
      </trkpt>
      <trkpt lat="43.98584" lon="5.11926">
        <ele>231.81</ele>
        <time>2021-01-18T10:04:59Z</time>
      </trkpt>
      <trkpt lat="43.98575" lon="5.11909">
        <ele>229.89</ele>
        <time>2021-01-18T10:05:12Z</time>
      </trkpt>
      <trkpt lat="43.98558" lon="5.11893">
        <ele>227.97</ele>
        <time>2021-01-18T10:05:31Z</time>
      </trkpt>
      <trkpt lat="43.98551" lon="5.11891">
        <ele>227.49</ele>
        <time>2021-01-18T10:05:52Z</time>
      </trkpt>
      <trkpt lat="43.98556" lon="5.11893">
        <ele>227.97</ele>
        <time>2021-01-18T10:06:18Z</time>
      </trkpt>
      <trkpt lat="43.98548" lon="5.11892">
        <ele>227.49</ele>
        <time>2021-01-18T10:06:40Z</time>
      </trkpt>
      <trkpt lat="43.98531" lon="5.11887">
        <ele>228.93</ele>
        <time>2021-01-18T10:06:55Z</time>
      </trkpt>
      <trkpt lat="43.98516" lon="5.11882">
        <ele>229.41</ele>
        <time>2021-01-18T10:07:09Z</time>
      </trkpt>
      <trkpt lat="43.98495" lon="5.11875">
        <ele>230.37</ele>
        <time>2021-01-18T10:07:27Z</time>
      </trkpt>
      <trkpt lat="43.98491" lon="5.11874">
        <ele>230.85</ele>
        <time>2021-01-18T10:07:31Z</time>
      </trkpt>
      <trkpt lat="43.98473" lon="5.11869">
        <ele>231.81</ele>
        <time>2021-01-18T10:07:48Z</time>
      </trkpt>
      <trkpt lat="43.98454" lon="5.11866">
        <ele>233.74</ele>
        <time>2021-01-18T10:08:08Z</time>
      </trkpt>
      <trkpt lat="43.98432" lon="5.1186">
        <ele>235.18</ele>
        <time>2021-01-18T10:08:27Z</time>
      </trkpt>
      <trkpt lat="43.98424" lon="5.11856">
        <ele>235.66</ele>
        <time>2021-01-18T10:08:35Z</time>
      </trkpt>
      <trkpt lat="43.98413" lon="5.11834">
        <ele>237.58</ele>
        <time>2021-01-18T10:08:52Z</time>
      </trkpt>
      <trkpt lat="43.98409" lon="5.11825">
        <ele>238.06</ele>
        <time>2021-01-18T10:08:58Z</time>
      </trkpt>
      <trkpt lat="43.98405" lon="5.11808">
        <ele>239.99</ele>
        <time>2021-01-18T10:09:13Z</time>
      </trkpt>
      <trkpt lat="43.984" lon="5.11808">
        <ele>240.95</ele>
        <time>2021-01-18T10:09:19Z</time>
      </trkpt>
      <trkpt lat="43.98378" lon="5.11821">
        <ele>243.35</ele>
        <time>2021-01-18T10:09:40Z</time>
      </trkpt>
      <trkpt lat="43.98366" lon="5.11832">
        <ele>244.79</ele>
        <time>2021-01-18T10:09:54Z</time>
      </trkpt>
      <trkpt lat="43.98348" lon="5.1185">
        <ele>246.23</ele>
        <time>2021-01-18T10:10:14Z</time>
      </trkpt>
      <trkpt lat="43.98332" lon="5.11861">
        <ele>248.16</ele>
        <time>2021-01-18T10:10:32Z</time>
      </trkpt>
      <trkpt lat="43.98314" lon="5.11876">
        <ele>250.56</ele>
        <time>2021-01-18T10:10:50Z</time>
      </trkpt>
      <trkpt lat="43.98313" lon="5.11883">
        <ele>250.56</ele>
        <time>2021-01-18T10:11:09Z</time>
      </trkpt>
      <trkpt lat="43.98317" lon="5.11897">
        <ele>250.56</ele>
        <time>2021-01-18T10:11:30Z</time>
      </trkpt>
      <trkpt lat="43.98322" lon="5.11917">
        <ele>250.56</ele>
        <time>2021-01-18T10:11:44Z</time>
      </trkpt>
      <trkpt lat="43.98315" lon="5.11924">
        <ele>252.96</ele>
        <time>2021-01-18T10:11:59Z</time>
      </trkpt>
      <trkpt lat="43.98328" lon="5.11927">
        <ele>254.41</ele>
        <time>2021-01-18T10:12:13Z</time>
      </trkpt>
      <trkpt lat="43.98329" lon="5.11927">
        <ele>254.41</ele>
        <time>2021-01-18T10:12:14Z</time>
      </trkpt>
      <trkpt lat="43.98345" lon="5.11924">
        <ele>255.37</ele>
        <time>2021-01-18T10:12:28Z</time>
      </trkpt>
      <trkpt lat="43.98363" lon="5.11914">
        <ele>254.41</ele>
        <time>2021-01-18T10:12:44Z</time>
      </trkpt>
      <trkpt lat="43.98391" lon="5.11918">
        <ele>254.41</ele>
        <time>2021-01-18T10:13:09Z</time>
      </trkpt>
      <trkpt lat="43.98392" lon="5.1192">
        <ele>254.41</ele>
        <time>2021-01-18T10:13:10Z</time>
      </trkpt>
      <trkpt lat="43.98404" lon="5.11943">
        <ele>254.41</ele>
        <time>2021-01-18T10:13:28Z</time>
      </trkpt>
      <trkpt lat="43.9841" lon="5.11962">
        <ele>253.93</ele>
        <time>2021-01-18T10:13:44Z</time>
      </trkpt>
      <trkpt lat="43.98404" lon="5.1196">
        <ele>257.29</ele>
        <time>2021-01-18T10:14:03Z</time>
      </trkpt>
      <trkpt lat="43.98396" lon="5.11947">
        <ele>260.17</ele>
        <time>2021-01-18T10:14:16Z</time>
      </trkpt>
      <trkpt lat="43.98383" lon="5.11942">
        <ele>262.1</ele>
        <time>2021-01-18T10:14:32Z</time>
      </trkpt>
      <trkpt lat="43.98374" lon="5.1194">
        <ele>264.98</ele>
        <time>2021-01-18T10:14:45Z</time>
      </trkpt>
      <trkpt lat="43.98361" lon="5.11949">
        <ele>268.35</ele>
        <time>2021-01-18T10:15:03Z</time>
      </trkpt>
      <trkpt lat="43.98355" lon="5.11949">
        <ele>267.86</ele>
        <time>2021-01-18T10:15:16Z</time>
      </trkpt>
      <trkpt lat="43.98346" lon="5.1195">
        <ele>268.35</ele>
        <time>2021-01-18T10:15:29Z</time>
      </trkpt>
      <trkpt lat="43.98342" lon="5.11958">
        <ele>268.83</ele>
        <time>2021-01-18T10:15:51Z</time>
      </trkpt>
      <trkpt lat="43.98338" lon="5.11955">
        <ele>268.83</ele>
        <time>2021-01-18T10:16:03Z</time>
      </trkpt>
      <trkpt lat="43.98326" lon="5.11956">
        <ele>268.83</ele>
        <time>2021-01-18T10:16:24Z</time>
      </trkpt>
      <trkpt lat="43.98319" lon="5.11961">
        <ele>267.86</ele>
        <time>2021-01-18T10:16:39Z</time>
      </trkpt>
      <trkpt lat="43.98301" lon="5.11967">
        <ele>267.38</ele>
        <time>2021-01-18T10:16:56Z</time>
      </trkpt>
      <trkpt lat="43.98284" lon="5.1198">
        <ele>266.9</ele>
        <time>2021-01-18T10:17:13Z</time>
      </trkpt>
      <trkpt lat="43.98261" lon="5.11985">
        <ele>265.94</ele>
        <time>2021-01-18T10:17:33Z</time>
      </trkpt>
      <trkpt lat="43.98259" lon="5.11985">
        <ele>265.94</ele>
        <time>2021-01-18T10:17:35Z</time>
      </trkpt>
      <trkpt lat="43.98242" lon="5.11992">
        <ele>266.42</ele>
        <time>2021-01-18T10:17:52Z</time>
      </trkpt>
      <trkpt lat="43.98229" lon="5.12008">
        <ele>268.83</ele>
        <time>2021-01-18T10:18:10Z</time>
      </trkpt>
      <trkpt lat="43.98215" lon="5.12014">
        <ele>270.27</ele>
        <time>2021-01-18T10:18:24Z</time>
      </trkpt>
      <trkpt lat="43.98203" lon="5.12024">
        <ele>272.19</ele>
        <time>2021-01-18T10:18:39Z</time>
      </trkpt>
      <trkpt lat="43.98195" lon="5.12027">
        <ele>273.15</ele>
        <time>2021-01-18T10:18:50Z</time>
      </trkpt>
      <trkpt lat="43.98182" lon="5.12024">
        <ele>274.11</ele>
        <time>2021-01-18T10:19:06Z</time>
      </trkpt>
      <trkpt lat="43.9817" lon="5.12026">
        <ele>277</ele>
        <time>2021-01-18T10:19:19Z</time>
      </trkpt>
      <trkpt lat="43.98167" lon="5.12028">
        <ele>278.44</ele>
        <time>2021-01-18T10:19:25Z</time>
      </trkpt>
      <trkpt lat="43.98149" lon="5.12029">
        <ele>280.36</ele>
        <time>2021-01-18T10:19:41Z</time>
      </trkpt>
      <trkpt lat="43.98137" lon="5.12035">
        <ele>283.25</ele>
        <time>2021-01-18T10:19:58Z</time>
      </trkpt>
      <trkpt lat="43.98123" lon="5.12036">
        <ele>286.61</ele>
        <time>2021-01-18T10:20:15Z</time>
      </trkpt>
      <trkpt lat="43.98111" lon="5.12042">
        <ele>289.49</ele>
        <time>2021-01-18T10:20:28Z</time>
      </trkpt>
      <trkpt lat="43.981" lon="5.12049">
        <ele>291.9</ele>
        <time>2021-01-18T10:20:44Z</time>
      </trkpt>
      <trkpt lat="43.98089" lon="5.12048">
        <ele>293.82</ele>
        <time>2021-01-18T10:20:54Z</time>
      </trkpt>
      <trkpt lat="43.98079" lon="5.12055">
        <ele>296.22</ele>
        <time>2021-01-18T10:21:09Z</time>
      </trkpt>
      <trkpt lat="43.98069" lon="5.12055">
        <ele>298.63</ele>
        <time>2021-01-18T10:21:19Z</time>
      </trkpt>
      <trkpt lat="43.98059" lon="5.12057">
        <ele>300.07</ele>
        <time>2021-01-18T10:21:28Z</time>
      </trkpt>
      <trkpt lat="43.98043" lon="5.1206">
        <ele>303.43</ele>
        <time>2021-01-18T10:21:48Z</time>
      </trkpt>
      <trkpt lat="43.98043" lon="5.12061">
        <ele>303.91</ele>
        <time>2021-01-18T10:22:16Z</time>
      </trkpt>
      <trkpt lat="43.98045" lon="5.12062">
        <ele>303.91</ele>
        <time>2021-01-18T10:22:47Z</time>
      </trkpt>
      <trkpt lat="43.98044" lon="5.12064">
        <ele>304.39</ele>
        <time>2021-01-18T10:23:19Z</time>
      </trkpt>
      <trkpt lat="43.98044" lon="5.12065">
        <ele>303.91</ele>
        <time>2021-01-18T10:23:48Z</time>
      </trkpt>
      <trkpt lat="43.98043" lon="5.12068">
        <ele>304.39</ele>
        <time>2021-01-18T10:24:15Z</time>
      </trkpt>
      <trkpt lat="43.98032" lon="5.12071">
        <ele>305.84</ele>
        <time>2021-01-18T10:24:38Z</time>
      </trkpt>
      <trkpt lat="43.9802" lon="5.12077">
        <ele>307.76</ele>
        <time>2021-01-18T10:24:55Z</time>
      </trkpt>
      <trkpt lat="43.98003" lon="5.12088">
        <ele>310.64</ele>
        <time>2021-01-18T10:25:18Z</time>
      </trkpt>
      <trkpt lat="43.9799" lon="5.12104">
        <ele>313.05</ele>
        <time>2021-01-18T10:25:38Z</time>
      </trkpt>
      <trkpt lat="43.97988" lon="5.12107">
        <ele>313.53</ele>
        <time>2021-01-18T10:25:41Z</time>
      </trkpt>
      <trkpt lat="43.97979" lon="5.12116">
        <ele>314.49</ele>
        <time>2021-01-18T10:25:52Z</time>
      </trkpt>
      <trkpt lat="43.97956" lon="5.12129">
        <ele>315.93</ele>
        <time>2021-01-18T10:26:14Z</time>
      </trkpt>
      <trkpt lat="43.97944" lon="5.12145">
        <ele>317.37</ele>
        <time>2021-01-18T10:26:31Z</time>
      </trkpt>
      <trkpt lat="43.97931" lon="5.12159">
        <ele>317.37</ele>
        <time>2021-01-18T10:26:47Z</time>
      </trkpt>
      <trkpt lat="43.97925" lon="5.12168">
        <ele>317.85</ele>
        <time>2021-01-18T10:26:57Z</time>
      </trkpt>
      <trkpt lat="43.97906" lon="5.1218">
        <ele>318.81</ele>
        <time>2021-01-18T10:27:15Z</time>
      </trkpt>
      <trkpt lat="43.97897" lon="5.12185">
        <ele>319.3</ele>
        <time>2021-01-18T10:27:23Z</time>
      </trkpt>
      <trkpt lat="43.97881" lon="5.12191">
        <ele>319.78</ele>
        <time>2021-01-18T10:27:38Z</time>
      </trkpt>
      <trkpt lat="43.97869" lon="5.12197">
        <ele>320.26</ele>
        <time>2021-01-18T10:27:50Z</time>
      </trkpt>
      <trkpt lat="43.97868" lon="5.12198">
        <ele>320.26</ele>
        <time>2021-01-18T10:27:51Z</time>
      </trkpt>
      <trkpt lat="43.97863" lon="5.12198">
        <ele>320.74</ele>
        <time>2021-01-18T10:27:54Z</time>
      </trkpt>
      <trkpt lat="43.97853" lon="5.122">
        <ele>321.22</ele>
        <time>2021-01-18T10:28:01Z</time>
      </trkpt>
      <trkpt lat="43.9784" lon="5.12213">
        <ele>322.66</ele>
        <time>2021-01-18T10:28:17Z</time>
      </trkpt>
      <trkpt lat="43.97832" lon="5.12237">
        <ele>324.58</ele>
        <time>2021-01-18T10:28:35Z</time>
      </trkpt>
      <trkpt lat="43.97831" lon="5.12265">
        <ele>326.02</ele>
        <time>2021-01-18T10:28:55Z</time>
      </trkpt>
      <trkpt lat="43.97824" lon="5.12276">
        <ele>327.47</ele>
        <time>2021-01-18T10:29:07Z</time>
      </trkpt>
      <trkpt lat="43.97821" lon="5.12278">
        <ele>327.95</ele>
        <time>2021-01-18T10:29:11Z</time>
      </trkpt>
      <trkpt lat="43.978" lon="5.12284">
        <ele>329.87</ele>
        <time>2021-01-18T10:29:30Z</time>
      </trkpt>
      <trkpt lat="43.97785" lon="5.1229">
        <ele>331.79</ele>
        <time>2021-01-18T10:29:48Z</time>
      </trkpt>
      <trkpt lat="43.97772" lon="5.12299">
        <ele>332.27</ele>
        <time>2021-01-18T10:30:00Z</time>
      </trkpt>
      <trkpt lat="43.97747" lon="5.12304">
        <ele>333.71</ele>
        <time>2021-01-18T10:30:21Z</time>
      </trkpt>
      <trkpt lat="43.97728" lon="5.12313">
        <ele>335.64</ele>
        <time>2021-01-18T10:30:41Z</time>
      </trkpt>
      <trkpt lat="43.97714" lon="5.12321">
        <ele>337.08</ele>
        <time>2021-01-18T10:30:54Z</time>
      </trkpt>
      <trkpt lat="43.97693" lon="5.12333">
        <ele>339.96</ele>
        <time>2021-01-18T10:31:15Z</time>
      </trkpt>
      <trkpt lat="43.97681" lon="5.12342">
        <ele>341.89</ele>
        <time>2021-01-18T10:31:29Z</time>
      </trkpt>
      <trkpt lat="43.97673" lon="5.12351">
        <ele>343.81</ele>
        <time>2021-01-18T10:31:42Z</time>
      </trkpt>
      <trkpt lat="43.9766" lon="5.12361">
        <ele>345.25</ele>
        <time>2021-01-18T10:31:56Z</time>
      </trkpt>
      <trkpt lat="43.97649" lon="5.12369">
        <ele>347.17</ele>
        <time>2021-01-18T10:32:13Z</time>
      </trkpt>
      <trkpt lat="43.9764" lon="5.12372">
        <ele>348.62</ele>
        <time>2021-01-18T10:32:23Z</time>
      </trkpt>
      <trkpt lat="43.97622" lon="5.12385">
        <ele>350.54</ele>
        <time>2021-01-18T10:32:43Z</time>
      </trkpt>
      <trkpt lat="43.97599" lon="5.1239">
        <ele>352.46</ele>
        <time>2021-01-18T10:33:07Z</time>
      </trkpt>
      <trkpt lat="43.97581" lon="5.12403">
        <ele>353.9</ele>
        <time>2021-01-18T10:33:26Z</time>
      </trkpt>
      <trkpt lat="43.97568" lon="5.12408">
        <ele>354.86</ele>
        <time>2021-01-18T10:33:39Z</time>
      </trkpt>
      <trkpt lat="43.9756" lon="5.12412">
        <ele>355.83</ele>
        <time>2021-01-18T10:33:48Z</time>
      </trkpt>
      <trkpt lat="43.97546" lon="5.12414">
        <ele>357.27</ele>
        <time>2021-01-18T10:34:00Z</time>
      </trkpt>
      <trkpt lat="43.97534" lon="5.12421">
        <ele>357.75</ele>
        <time>2021-01-18T10:34:13Z</time>
      </trkpt>
      <trkpt lat="43.97517" lon="5.12434">
        <ele>358.71</ele>
        <time>2021-01-18T10:34:30Z</time>
      </trkpt>
      <trkpt lat="43.97509" lon="5.12451">
        <ele>360.15</ele>
        <time>2021-01-18T10:34:48Z</time>
      </trkpt>
      <trkpt lat="43.97513" lon="5.12472">
        <ele>358.71</ele>
        <time>2021-01-18T10:35:11Z</time>
      </trkpt>
      <trkpt lat="43.97511" lon="5.12474">
        <ele>359.19</ele>
        <time>2021-01-18T10:35:40Z</time>
      </trkpt>
      <trkpt lat="43.97513" lon="5.12483">
        <ele>359.19</ele>
        <time>2021-01-18T10:36:05Z</time>
      </trkpt>
      <trkpt lat="43.97515" lon="5.12488">
        <ele>359.19</ele>
        <time>2021-01-18T10:36:08Z</time>
      </trkpt>
      <trkpt lat="43.97517" lon="5.12499">
        <ele>358.71</ele>
        <time>2021-01-18T10:36:14Z</time>
      </trkpt>
      <trkpt lat="43.97518" lon="5.12524">
        <ele>357.75</ele>
        <time>2021-01-18T10:36:30Z</time>
      </trkpt>
      <trkpt lat="43.97512" lon="5.12537">
        <ele>357.75</ele>
        <time>2021-01-18T10:36:39Z</time>
      </trkpt>
      <trkpt lat="43.975" lon="5.1255">
        <ele>356.31</ele>
        <time>2021-01-18T10:36:52Z</time>
      </trkpt>
      <trkpt lat="43.97482" lon="5.12568">
        <ele>355.34</ele>
        <time>2021-01-18T10:37:12Z</time>
      </trkpt>
      <trkpt lat="43.97472" lon="5.12587">
        <ele>352.94</ele>
        <time>2021-01-18T10:37:29Z</time>
      </trkpt>
      <trkpt lat="43.97465" lon="5.1261">
        <ele>350.06</ele>
        <time>2021-01-18T10:37:46Z</time>
      </trkpt>
      <trkpt lat="43.97453" lon="5.12629">
        <ele>349.1</ele>
        <time>2021-01-18T10:38:04Z</time>
      </trkpt>
      <trkpt lat="43.97433" lon="5.12651">
        <ele>349.58</ele>
        <time>2021-01-18T10:38:27Z</time>
      </trkpt>
      <trkpt lat="43.97416" lon="5.1267">
        <ele>348.62</ele>
        <time>2021-01-18T10:38:46Z</time>
      </trkpt>
      <trkpt lat="43.97402" lon="5.12684">
        <ele>348.13</ele>
        <time>2021-01-18T10:39:02Z</time>
      </trkpt>
      <trkpt lat="43.97401" lon="5.12684">
        <ele>348.13</ele>
        <time>2021-01-18T10:39:03Z</time>
      </trkpt>
      <trkpt lat="43.9738" lon="5.12692">
        <ele>347.65</ele>
        <time>2021-01-18T10:39:24Z</time>
      </trkpt>
      <trkpt lat="43.97374" lon="5.12694">
        <ele>346.69</ele>
        <time>2021-01-18T10:39:42Z</time>
      </trkpt>
      <trkpt lat="43.9737" lon="5.12702">
        <ele>347.17</ele>
        <time>2021-01-18T10:40:01Z</time>
      </trkpt>
      <trkpt lat="43.97367" lon="5.12704">
        <ele>346.69</ele>
        <time>2021-01-18T10:40:27Z</time>
      </trkpt>
      <trkpt lat="43.97365" lon="5.12711">
        <ele>346.21</ele>
        <time>2021-01-18T10:40:52Z</time>
      </trkpt>
      <trkpt lat="43.97371" lon="5.12713">
        <ele>346.21</ele>
        <time>2021-01-18T10:41:17Z</time>
      </trkpt>
      <trkpt lat="43.97376" lon="5.12718">
        <ele>346.21</ele>
        <time>2021-01-18T10:41:40Z</time>
      </trkpt>
      <trkpt lat="43.97381" lon="5.12736">
        <ele>344.29</ele>
        <time>2021-01-18T10:41:58Z</time>
      </trkpt>
      <trkpt lat="43.97381" lon="5.12738">
        <ele>342.37</ele>
        <time>2021-01-18T10:42:00Z</time>
      </trkpt>
      <trkpt lat="43.97382" lon="5.12742">
        <ele>341.41</ele>
        <time>2021-01-18T10:42:02Z</time>
      </trkpt>
      <trkpt lat="43.97382" lon="5.12761">
        <ele>338.52</ele>
        <time>2021-01-18T10:42:15Z</time>
      </trkpt>
      <trkpt lat="43.97386" lon="5.12781">
        <ele>335.64</ele>
        <time>2021-01-18T10:42:32Z</time>
      </trkpt>
      <trkpt lat="43.9739" lon="5.12798">
        <ele>333.23</ele>
        <time>2021-01-18T10:42:47Z</time>
      </trkpt>
      <trkpt lat="43.97401" lon="5.12806">
        <ele>330.83</ele>
        <time>2021-01-18T10:43:04Z</time>
      </trkpt>
      <trkpt lat="43.97406" lon="5.12806">
        <ele>330.35</ele>
        <time>2021-01-18T10:43:11Z</time>
      </trkpt>
      <trkpt lat="43.97414" lon="5.12803">
        <ele>329.87</ele>
        <time>2021-01-18T10:43:18Z</time>
      </trkpt>
      <trkpt lat="43.97425" lon="5.12798">
        <ele>328.91</ele>
        <time>2021-01-18T10:43:30Z</time>
      </trkpt>
      <trkpt lat="43.97438" lon="5.12793">
        <ele>328.43</ele>
        <time>2021-01-18T10:43:41Z</time>
      </trkpt>
      <trkpt lat="43.97456" lon="5.12787">
        <ele>326.99</ele>
        <time>2021-01-18T10:43:56Z</time>
      </trkpt>
      <trkpt lat="43.97471" lon="5.12781">
        <ele>326.02</ele>
        <time>2021-01-18T10:44:09Z</time>
      </trkpt>
      <trkpt lat="43.97483" lon="5.1278">
        <ele>325.54</ele>
        <time>2021-01-18T10:44:19Z</time>
      </trkpt>
      <trkpt lat="43.97487" lon="5.12777">
        <ele>325.54</ele>
        <time>2021-01-18T10:44:23Z</time>
      </trkpt>
      <trkpt lat="43.97504" lon="5.12768">
        <ele>324.1</ele>
        <time>2021-01-18T10:44:39Z</time>
      </trkpt>
      <trkpt lat="43.9752" lon="5.12758">
        <ele>323.14</ele>
        <time>2021-01-18T10:44:57Z</time>
      </trkpt>
      <trkpt lat="43.97526" lon="5.12755">
        <ele>322.66</ele>
        <time>2021-01-18T10:45:05Z</time>
      </trkpt>
      <trkpt lat="43.97547" lon="5.12753">
        <ele>321.7</ele>
        <time>2021-01-18T10:45:25Z</time>
      </trkpt>
      <trkpt lat="43.97548" lon="5.12753">
        <ele>321.7</ele>
        <time>2021-01-18T10:45:26Z</time>
      </trkpt>
      <trkpt lat="43.97565" lon="5.12755">
        <ele>318.81</ele>
        <time>2021-01-18T10:45:43Z</time>
      </trkpt>
      <trkpt lat="43.97573" lon="5.12759">
        <ele>318.33</ele>
        <time>2021-01-18T10:46:02Z</time>
      </trkpt>
      <trkpt lat="43.97571" lon="5.12761">
        <ele>317.37</ele>
        <time>2021-01-18T10:46:32Z</time>
      </trkpt>
      <trkpt lat="43.97572" lon="5.12757">
        <ele>317.85</ele>
        <time>2021-01-18T10:47:01Z</time>
      </trkpt>
      <trkpt lat="43.97572" lon="5.12757">
        <ele>317.37</ele>
        <time>2021-01-18T10:47:36Z</time>
      </trkpt>
      <trkpt lat="43.97572" lon="5.12755">
        <ele>317.37</ele>
        <time>2021-01-18T10:48:07Z</time>
      </trkpt>
      <trkpt lat="43.97573" lon="5.12756">
        <ele>317.37</ele>
        <time>2021-01-18T10:48:50Z</time>
      </trkpt>
      <trkpt lat="43.9757" lon="5.12755">
        <ele>317.37</ele>
        <time>2021-01-18T10:49:57Z</time>
      </trkpt>
      <trkpt lat="43.97575" lon="5.12755">
        <ele>317.37</ele>
        <time>2021-01-18T10:50:29Z</time>
      </trkpt>
      <trkpt lat="43.97575" lon="5.1275">
        <ele>317.37</ele>
        <time>2021-01-18T10:50:59Z</time>
      </trkpt>
      <trkpt lat="43.97569" lon="5.12753">
        <ele>317.37</ele>
        <time>2021-01-18T10:51:33Z</time>
      </trkpt>
      <trkpt lat="43.97569" lon="5.12757">
        <ele>317.37</ele>
        <time>2021-01-18T10:52:07Z</time>
      </trkpt>
      <trkpt lat="43.97574" lon="5.12755">
        <ele>317.37</ele>
        <time>2021-01-18T10:52:53Z</time>
      </trkpt>
      <trkpt lat="43.97572" lon="5.12756">
        <ele>317.37</ele>
        <time>2021-01-18T10:53:28Z</time>
      </trkpt>
      <trkpt lat="43.97571" lon="5.12756">
        <ele>317.37</ele>
        <time>2021-01-18T10:54:24Z</time>
      </trkpt>
      <trkpt lat="43.97572" lon="5.12755">
        <ele>317.37</ele>
        <time>2021-01-18T10:56:04Z</time>
      </trkpt>
      <trkpt lat="43.9757" lon="5.12753">
        <ele>317.37</ele>
        <time>2021-01-18T10:57:07Z</time>
      </trkpt>
      <trkpt lat="43.97572" lon="5.12756">
        <ele>317.37</ele>
        <time>2021-01-18T10:58:52Z</time>
      </trkpt>
      <trkpt lat="43.97573" lon="5.12756">
        <ele>317.37</ele>
        <time>2021-01-18T11:01:04Z</time>
      </trkpt>
      <trkpt lat="43.97574" lon="5.12755">
        <ele>317.37</ele>
        <time>2021-01-18T11:02:29Z</time>
      </trkpt>
      <trkpt lat="43.97573" lon="5.12754">
        <ele>317.37</ele>
        <time>2021-01-18T11:03:05Z</time>
      </trkpt>
      <trkpt lat="43.97573" lon="5.12755">
        <ele>317.37</ele>
        <time>2021-01-18T11:03:50Z</time>
      </trkpt>
      <trkpt lat="43.97575" lon="5.12755">
        <ele>317.37</ele>
        <time>2021-01-18T11:04:27Z</time>
      </trkpt>
      <trkpt lat="43.97576" lon="5.12754">
        <ele>317.37</ele>
        <time>2021-01-18T11:04:58Z</time>
      </trkpt>
      <trkpt lat="43.97576" lon="5.12754">
        <ele>317.37</ele>
        <time>2021-01-18T11:05:33Z</time>
      </trkpt>
      <trkpt lat="43.97574" lon="5.12756">
        <ele>317.37</ele>
        <time>2021-01-18T11:08:08Z</time>
      </trkpt>
      <trkpt lat="43.97575" lon="5.12754">
        <ele>317.37</ele>
        <time>2021-01-18T11:11:07Z</time>
      </trkpt>
      <trkpt lat="43.97574" lon="5.12755">
        <ele>317.37</ele>
        <time>2021-01-18T11:12:41Z</time>
      </trkpt>
      <trkpt lat="43.97573" lon="5.12755">
        <ele>317.37</ele>
        <time>2021-01-18T11:13:59Z</time>
      </trkpt>
      <trkpt lat="43.97573" lon="5.12756">
        <ele>317.37</ele>
        <time>2021-01-18T11:14:35Z</time>
      </trkpt>
      <trkpt lat="43.97573" lon="5.12757">
        <ele>317.37</ele>
        <time>2021-01-18T11:15:14Z</time>
      </trkpt>
      <trkpt lat="43.97575" lon="5.12758">
        <ele>317.37</ele>
        <time>2021-01-18T11:17:23Z</time>
      </trkpt>
      <trkpt lat="43.97577" lon="5.12755">
        <ele>318.81</ele>
        <time>2021-01-18T11:17:57Z</time>
      </trkpt>
      <trkpt lat="43.97577" lon="5.12754">
        <ele>318.81</ele>
        <time>2021-01-18T11:18:06Z</time>
      </trkpt>
      <trkpt lat="43.97577" lon="5.12754">
        <ele>319.3</ele>
        <time>2021-01-18T11:18:32Z</time>
      </trkpt>
      <trkpt lat="43.97576" lon="5.12755">
        <ele>318.81</ele>
        <time>2021-01-18T11:18:41Z</time>
      </trkpt>
      <trkpt lat="43.97576" lon="5.12756">
        <ele>319.3</ele>
        <time>2021-01-18T11:18:50Z</time>
      </trkpt>
      <trkpt lat="43.97576" lon="5.12756">
        <ele>319.3</ele>
        <time>2021-01-18T11:19:00Z</time>
      </trkpt>
      <trkpt lat="43.97577" lon="5.12756">
        <ele>319.3</ele>
        <time>2021-01-18T11:19:09Z</time>
      </trkpt>
      <trkpt lat="43.97577" lon="5.12756">
        <ele>318.81</ele>
        <time>2021-01-18T11:19:19Z</time>
      </trkpt>
      <trkpt lat="43.97576" lon="5.12754">
        <ele>318.81</ele>
        <time>2021-01-18T11:19:40Z</time>
      </trkpt>
      <trkpt lat="43.97575" lon="5.12754">
        <ele>319.3</ele>
        <time>2021-01-18T11:20:08Z</time>
      </trkpt>
      <trkpt lat="43.97575" lon="5.12756">
        <ele>319.3</ele>
        <time>2021-01-18T11:20:25Z</time>
      </trkpt>
      <trkpt lat="43.97575" lon="5.12751">
        <ele>319.78</ele>
        <time>2021-01-18T11:20:58Z</time>
      </trkpt>
      <trkpt lat="43.97574" lon="5.12755">
        <ele>320.26</ele>
        <time>2021-01-18T11:21:25Z</time>
      </trkpt>
      <trkpt lat="43.97572" lon="5.12758">
        <ele>321.22</ele>
        <time>2021-01-18T11:22:01Z</time>
      </trkpt>
      <trkpt lat="43.97573" lon="5.12756">
        <ele>320.74</ele>
        <time>2021-01-18T11:22:23Z</time>
      </trkpt>
      <trkpt lat="43.97571" lon="5.12757">
        <ele>320.26</ele>
        <time>2021-01-18T11:22:48Z</time>
      </trkpt>
      <trkpt lat="43.97573" lon="5.12753">
        <ele>321.22</ele>
        <time>2021-01-18T11:23:13Z</time>
      </trkpt>
      <trkpt lat="43.97573" lon="5.12748">
        <ele>321.22</ele>
        <time>2021-01-18T11:23:38Z</time>
      </trkpt>
      <trkpt lat="43.97577" lon="5.12741">
        <ele>321.22</ele>
        <time>2021-01-18T11:24:02Z</time>
      </trkpt>
      <trkpt lat="43.97596" lon="5.12729">
        <ele>321.22</ele>
        <time>2021-01-18T11:24:29Z</time>
      </trkpt>
      <trkpt lat="43.97603" lon="5.12734">
        <ele>321.22</ele>
        <time>2021-01-18T11:24:38Z</time>
      </trkpt>
      <trkpt lat="43.97626" lon="5.12739">
        <ele>318.81</ele>
        <time>2021-01-18T11:25:04Z</time>
      </trkpt>
      <trkpt lat="43.97635" lon="5.12734">
        <ele>318.33</ele>
        <time>2021-01-18T11:25:11Z</time>
      </trkpt>
      <trkpt lat="43.97659" lon="5.12722">
        <ele>318.33</ele>
        <time>2021-01-18T11:25:30Z</time>
      </trkpt>
      <trkpt lat="43.9768" lon="5.12718">
        <ele>317.37</ele>
        <time>2021-01-18T11:25:48Z</time>
      </trkpt>
      <trkpt lat="43.97684" lon="5.12716">
        <ele>317.37</ele>
        <time>2021-01-18T11:25:52Z</time>
      </trkpt>
      <trkpt lat="43.97703" lon="5.12704">
        <ele>316.89</ele>
        <time>2021-01-18T11:26:08Z</time>
      </trkpt>
      <trkpt lat="43.97726" lon="5.12704">
        <ele>315.45</ele>
        <time>2021-01-18T11:26:30Z</time>
      </trkpt>
      <trkpt lat="43.97746" lon="5.12696">
        <ele>312.57</ele>
        <time>2021-01-18T11:26:50Z</time>
      </trkpt>
      <trkpt lat="43.97766" lon="5.12687">
        <ele>309.68</ele>
        <time>2021-01-18T11:27:11Z</time>
      </trkpt>
      <trkpt lat="43.97788" lon="5.12679">
        <ele>307.76</ele>
        <time>2021-01-18T11:27:31Z</time>
      </trkpt>
      <trkpt lat="43.97804" lon="5.12673">
        <ele>305.36</ele>
        <time>2021-01-18T11:27:48Z</time>
      </trkpt>
      <trkpt lat="43.97824" lon="5.12672">
        <ele>301.99</ele>
        <time>2021-01-18T11:28:07Z</time>
      </trkpt>
      <trkpt lat="43.97842" lon="5.12674">
        <ele>299.59</ele>
        <time>2021-01-18T11:28:26Z</time>
      </trkpt>
      <trkpt lat="43.97861" lon="5.12669">
        <ele>296.22</ele>
        <time>2021-01-18T11:28:46Z</time>
      </trkpt>
      <trkpt lat="43.97871" lon="5.12664">
        <ele>292.86</ele>
        <time>2021-01-18T11:29:01Z</time>
      </trkpt>
      <trkpt lat="43.97885" lon="5.12666">
        <ele>289.97</ele>
        <time>2021-01-18T11:29:16Z</time>
      </trkpt>
      <trkpt lat="43.97904" lon="5.12664">
        <ele>286.61</ele>
        <time>2021-01-18T11:29:36Z</time>
      </trkpt>
      <trkpt lat="43.97912" lon="5.1266">
        <ele>284.69</ele>
        <time>2021-01-18T11:29:47Z</time>
      </trkpt>
      <trkpt lat="43.97919" lon="5.12657">
        <ele>283.73</ele>
        <time>2021-01-18T11:30:05Z</time>
      </trkpt>
      <trkpt lat="43.97929" lon="5.12657">
        <ele>281.8</ele>
        <time>2021-01-18T11:30:16Z</time>
      </trkpt>
      <trkpt lat="43.97938" lon="5.12659">
        <ele>280.36</ele>
        <time>2021-01-18T11:30:22Z</time>
      </trkpt>
      <trkpt lat="43.97951" lon="5.12658">
        <ele>278.44</ele>
        <time>2021-01-18T11:30:34Z</time>
      </trkpt>
      <trkpt lat="43.9797" lon="5.12665">
        <ele>276.04</ele>
        <time>2021-01-18T11:30:51Z</time>
      </trkpt>
      <trkpt lat="43.9799" lon="5.12671">
        <ele>272.67</ele>
        <time>2021-01-18T11:31:13Z</time>
      </trkpt>
      <trkpt lat="43.9799" lon="5.12672">
        <ele>272.67</ele>
        <time>2021-01-18T11:31:14Z</time>
      </trkpt>
      <trkpt lat="43.97996" lon="5.12676">
        <ele>271.23</ele>
        <time>2021-01-18T11:31:20Z</time>
      </trkpt>
      <trkpt lat="43.98011" lon="5.12684">
        <ele>268.83</ele>
        <time>2021-01-18T11:31:35Z</time>
      </trkpt>
      <trkpt lat="43.98036" lon="5.12684">
        <ele>265.94</ele>
        <time>2021-01-18T11:31:55Z</time>
      </trkpt>
      <trkpt lat="43.98045" lon="5.12687">
        <ele>264.02</ele>
        <time>2021-01-18T11:32:06Z</time>
      </trkpt>
      <trkpt lat="43.98051" lon="5.12696">
        <ele>263.06</ele>
        <time>2021-01-18T11:32:16Z</time>
      </trkpt>
      <trkpt lat="43.98064" lon="5.12696">
        <ele>262.58</ele>
        <time>2021-01-18T11:32:37Z</time>
      </trkpt>
      <trkpt lat="43.98082" lon="5.12674">
        <ele>262.58</ele>
        <time>2021-01-18T11:32:58Z</time>
      </trkpt>
      <trkpt lat="43.98096" lon="5.12645">
        <ele>261.62</ele>
        <time>2021-01-18T11:33:19Z</time>
      </trkpt>
      <trkpt lat="43.98111" lon="5.12633">
        <ele>261.14</ele>
        <time>2021-01-18T11:33:33Z</time>
      </trkpt>
      <trkpt lat="43.9813" lon="5.12619">
        <ele>261.14</ele>
        <time>2021-01-18T11:33:50Z</time>
      </trkpt>
      <trkpt lat="43.9814" lon="5.12612">
        <ele>260.17</ele>
        <time>2021-01-18T11:34:03Z</time>
      </trkpt>
      <trkpt lat="43.98141" lon="5.12611">
        <ele>260.17</ele>
        <time>2021-01-18T11:34:17Z</time>
      </trkpt>
      <trkpt lat="43.98137" lon="5.12611">
        <ele>259.69</ele>
        <time>2021-01-18T11:34:44Z</time>
      </trkpt>
      <trkpt lat="43.98134" lon="5.12603">
        <ele>260.17</ele>
        <time>2021-01-18T11:35:17Z</time>
      </trkpt>
      <trkpt lat="43.98136" lon="5.12608">
        <ele>260.17</ele>
        <time>2021-01-18T11:35:45Z</time>
      </trkpt>
      <trkpt lat="43.98139" lon="5.12606">
        <ele>260.17</ele>
        <time>2021-01-18T11:36:17Z</time>
      </trkpt>
      <trkpt lat="43.9814" lon="5.12605">
        <ele>260.17</ele>
        <time>2021-01-18T11:36:18Z</time>
      </trkpt>
      <trkpt lat="43.98145" lon="5.12601">
        <ele>260.17</ele>
        <time>2021-01-18T11:36:22Z</time>
      </trkpt>
      <trkpt lat="43.9816" lon="5.12588">
        <ele>259.21</ele>
        <time>2021-01-18T11:36:39Z</time>
      </trkpt>
      <trkpt lat="43.98163" lon="5.12584">
        <ele>259.21</ele>
        <time>2021-01-18T11:36:43Z</time>
      </trkpt>
      <trkpt lat="43.98168" lon="5.12573">
        <ele>258.73</ele>
        <time>2021-01-18T11:36:50Z</time>
      </trkpt>
      <trkpt lat="43.98186" lon="5.12549">
        <ele>258.25</ele>
        <time>2021-01-18T11:37:10Z</time>
      </trkpt>
      <trkpt lat="43.98197" lon="5.12537">
        <ele>258.73</ele>
        <time>2021-01-18T11:37:20Z</time>
      </trkpt>
      <trkpt lat="43.982" lon="5.12533">
        <ele>258.73</ele>
        <time>2021-01-18T11:37:25Z</time>
      </trkpt>
      <trkpt lat="43.98219" lon="5.12517">
        <ele>258.73</ele>
        <time>2021-01-18T11:37:42Z</time>
      </trkpt>
      <trkpt lat="43.98237" lon="5.12505">
        <ele>258.73</ele>
        <time>2021-01-18T11:37:59Z</time>
      </trkpt>
      <trkpt lat="43.98239" lon="5.12502">
        <ele>258.25</ele>
        <time>2021-01-18T11:38:02Z</time>
      </trkpt>
      <trkpt lat="43.98247" lon="5.12502">
        <ele>257.77</ele>
        <time>2021-01-18T11:38:06Z</time>
      </trkpt>
      <trkpt lat="43.98244" lon="5.125">
        <ele>257.77</ele>
        <time>2021-01-18T11:38:08Z</time>
      </trkpt>
      <trkpt lat="43.9825" lon="5.125">
        <ele>258.25</ele>
        <time>2021-01-18T11:38:13Z</time>
      </trkpt>
      <trkpt lat="43.98275" lon="5.12491">
        <ele>256.81</ele>
        <time>2021-01-18T11:38:34Z</time>
      </trkpt>
      <trkpt lat="43.98296" lon="5.12478">
        <ele>255.37</ele>
        <time>2021-01-18T11:38:53Z</time>
      </trkpt>
      <trkpt lat="43.98316" lon="5.1247">
        <ele>254.41</ele>
        <time>2021-01-18T11:39:12Z</time>
      </trkpt>
      <trkpt lat="43.98326" lon="5.12468">
        <ele>252.96</ele>
        <time>2021-01-18T11:39:27Z</time>
      </trkpt>
      <trkpt lat="43.98325" lon="5.12486">
        <ele>250.56</ele>
        <time>2021-01-18T11:39:46Z</time>
      </trkpt>
      <trkpt lat="43.98329" lon="5.12498">
        <ele>249.12</ele>
        <time>2021-01-18T11:39:57Z</time>
      </trkpt>
      <trkpt lat="43.98334" lon="5.12515">
        <ele>247.68</ele>
        <time>2021-01-18T11:40:08Z</time>
      </trkpt>
      <trkpt lat="43.98338" lon="5.12539">
        <ele>247.68</ele>
        <time>2021-01-18T11:40:24Z</time>
      </trkpt>
      <trkpt lat="43.98337" lon="5.12569">
        <ele>248.16</ele>
        <time>2021-01-18T11:40:42Z</time>
      </trkpt>
      <trkpt lat="43.98332" lon="5.12596">
        <ele>251.04</ele>
        <time>2021-01-18T11:41:00Z</time>
      </trkpt>
      <trkpt lat="43.98334" lon="5.12622">
        <ele>254.41</ele>
        <time>2021-01-18T11:41:20Z</time>
      </trkpt>
      <trkpt lat="43.98332" lon="5.12644">
        <ele>257.29</ele>
        <time>2021-01-18T11:41:38Z</time>
      </trkpt>
      <trkpt lat="43.98337" lon="5.1266">
        <ele>257.77</ele>
        <time>2021-01-18T11:41:51Z</time>
      </trkpt>
      <trkpt lat="43.98341" lon="5.1269">
        <ele>258.25</ele>
        <time>2021-01-18T11:42:16Z</time>
      </trkpt>
      <trkpt lat="43.9834" lon="5.12722">
        <ele>260.17</ele>
        <time>2021-01-18T11:42:39Z</time>
      </trkpt>
      <trkpt lat="43.98345" lon="5.12736">
        <ele>259.69</ele>
        <time>2021-01-18T11:42:50Z</time>
      </trkpt>
      <trkpt lat="43.98349" lon="5.12744">
        <ele>259.21</ele>
        <time>2021-01-18T11:42:55Z</time>
      </trkpt>
      <trkpt lat="43.98348" lon="5.12768">
        <ele>260.17</ele>
        <time>2021-01-18T11:43:13Z</time>
      </trkpt>
      <trkpt lat="43.98341" lon="5.12792">
        <ele>259.21</ele>
        <time>2021-01-18T11:43:33Z</time>
      </trkpt>
      <trkpt lat="43.98342" lon="5.12812">
        <ele>259.21</ele>
        <time>2021-01-18T11:43:46Z</time>
      </trkpt>
      <trkpt lat="43.98337" lon="5.12825">
        <ele>259.21</ele>
        <time>2021-01-18T11:43:56Z</time>
      </trkpt>
      <trkpt lat="43.98337" lon="5.12843">
        <ele>259.69</ele>
        <time>2021-01-18T11:44:11Z</time>
      </trkpt>
      <trkpt lat="43.98339" lon="5.12857">
        <ele>261.14</ele>
        <time>2021-01-18T11:44:26Z</time>
      </trkpt>
      <trkpt lat="43.98333" lon="5.12868">
        <ele>264.02</ele>
        <time>2021-01-18T11:44:45Z</time>
      </trkpt>
      <trkpt lat="43.98325" lon="5.12876">
        <ele>265.46</ele>
        <time>2021-01-18T11:44:59Z</time>
      </trkpt>
      <trkpt lat="43.98314" lon="5.12899">
        <ele>267.86</ele>
        <time>2021-01-18T11:45:21Z</time>
      </trkpt>
      <trkpt lat="43.9831" lon="5.1291">
        <ele>268.83</ele>
        <time>2021-01-18T11:45:35Z</time>
      </trkpt>
      <trkpt lat="43.98312" lon="5.12926">
        <ele>270.75</ele>
        <time>2021-01-18T11:45:46Z</time>
      </trkpt>
      <trkpt lat="43.98315" lon="5.12938">
        <ele>273.63</ele>
        <time>2021-01-18T11:46:02Z</time>
      </trkpt>
      <trkpt lat="43.98321" lon="5.12936">
        <ele>274.59</ele>
        <time>2021-01-18T11:46:19Z</time>
      </trkpt>
      <trkpt lat="43.98328" lon="5.12935">
        <ele>277.96</ele>
        <time>2021-01-18T11:46:36Z</time>
      </trkpt>
      <trkpt lat="43.98322" lon="5.12945">
        <ele>280.84</ele>
        <time>2021-01-18T11:46:56Z</time>
      </trkpt>
      <trkpt lat="43.98323" lon="5.12962">
        <ele>283.73</ele>
        <time>2021-01-18T11:47:20Z</time>
      </trkpt>
      <trkpt lat="43.98325" lon="5.12962">
        <ele>283.25</ele>
        <time>2021-01-18T11:47:53Z</time>
      </trkpt>
      <trkpt lat="43.98327" lon="5.1296">
        <ele>282.28</ele>
        <time>2021-01-18T11:48:21Z</time>
      </trkpt>
      <trkpt lat="43.98325" lon="5.12961">
        <ele>282.77</ele>
        <time>2021-01-18T11:48:50Z</time>
      </trkpt>
      <trkpt lat="43.98324" lon="5.12963">
        <ele>282.77</ele>
        <time>2021-01-18T11:49:16Z</time>
      </trkpt>
      <trkpt lat="43.98324" lon="5.12962">
        <ele>282.77</ele>
        <time>2021-01-18T11:49:46Z</time>
      </trkpt>
      <trkpt lat="43.98326" lon="5.12961">
        <ele>282.77</ele>
        <time>2021-01-18T11:50:21Z</time>
      </trkpt>
      <trkpt lat="43.98324" lon="5.1296">
        <ele>282.77</ele>
        <time>2021-01-18T11:50:56Z</time>
      </trkpt>
      <trkpt lat="43.98332" lon="5.12965">
        <ele>282.77</ele>
        <time>2021-01-18T11:51:23Z</time>
      </trkpt>
      <trkpt lat="43.98342" lon="5.1298">
        <ele>282.77</ele>
        <time>2021-01-18T11:51:46Z</time>
      </trkpt>
      <trkpt lat="43.98344" lon="5.12984">
        <ele>287.57</ele>
        <time>2021-01-18T11:51:50Z</time>
      </trkpt>
      <trkpt lat="43.98345" lon="5.12992">
        <ele>290.46</ele>
        <time>2021-01-18T11:51:58Z</time>
      </trkpt>
      <trkpt lat="43.98342" lon="5.13005">
        <ele>291.9</ele>
        <time>2021-01-18T11:52:10Z</time>
      </trkpt>
      <trkpt lat="43.9833" lon="5.13024">
        <ele>294.78</ele>
        <time>2021-01-18T11:52:31Z</time>
      </trkpt>
      <trkpt lat="43.98325" lon="5.13043">
        <ele>297.18</ele>
        <time>2021-01-18T11:52:47Z</time>
      </trkpt>
      <trkpt lat="43.98328" lon="5.13059">
        <ele>300.07</ele>
        <time>2021-01-18T11:53:05Z</time>
      </trkpt>
      <trkpt lat="43.98335" lon="5.13078">
        <ele>303.43</ele>
        <time>2021-01-18T11:53:23Z</time>
      </trkpt>
      <trkpt lat="43.98347" lon="5.13099">
        <ele>306.32</ele>
        <time>2021-01-18T11:53:47Z</time>
      </trkpt>
      <trkpt lat="43.98346" lon="5.13114">
        <ele>309.2</ele>
        <time>2021-01-18T11:54:06Z</time>
      </trkpt>
      <trkpt lat="43.98353" lon="5.13117">
        <ele>311.12</ele>
        <time>2021-01-18T11:54:24Z</time>
      </trkpt>
      <trkpt lat="43.98363" lon="5.13125">
        <ele>313.05</ele>
        <time>2021-01-18T11:54:45Z</time>
      </trkpt>
      <trkpt lat="43.98362" lon="5.1315">
        <ele>314.97</ele>
        <time>2021-01-18T11:55:04Z</time>
      </trkpt>
      <trkpt lat="43.9836" lon="5.13163">
        <ele>314.97</ele>
        <time>2021-01-18T11:55:12Z</time>
      </trkpt>
      <trkpt lat="43.98364" lon="5.1318">
        <ele>316.41</ele>
        <time>2021-01-18T11:55:30Z</time>
      </trkpt>
      <trkpt lat="43.98372" lon="5.13195">
        <ele>316.89</ele>
        <time>2021-01-18T11:55:51Z</time>
      </trkpt>
      <trkpt lat="43.98373" lon="5.13196">
        <ele>316.41</ele>
        <time>2021-01-18T11:56:16Z</time>
      </trkpt>
      <trkpt lat="43.98374" lon="5.13199">
        <ele>315.45</ele>
        <time>2021-01-18T11:56:41Z</time>
      </trkpt>
      <trkpt lat="43.98374" lon="5.13199">
        <ele>316.89</ele>
        <time>2021-01-18T11:56:55Z</time>
      </trkpt>
      <trkpt lat="43.98375" lon="5.13197">
        <ele>316.89</ele>
        <time>2021-01-18T11:57:21Z</time>
      </trkpt>
      <trkpt lat="43.98382" lon="5.13205">
        <ele>316.89</ele>
        <time>2021-01-18T11:57:32Z</time>
      </trkpt>
      <trkpt lat="43.98388" lon="5.1321">
        <ele>315.93</ele>
        <time>2021-01-18T11:57:37Z</time>
      </trkpt>
      <trkpt lat="43.98408" lon="5.13227">
        <ele>315.45</ele>
        <time>2021-01-18T11:57:56Z</time>
      </trkpt>
      <trkpt lat="43.98422" lon="5.1324">
        <ele>315.45</ele>
        <time>2021-01-18T11:58:13Z</time>
      </trkpt>
      <trkpt lat="43.98428" lon="5.13247">
        <ele>315.45</ele>
        <time>2021-01-18T11:58:19Z</time>
      </trkpt>
      <trkpt lat="43.98449" lon="5.13264">
        <ele>315.93</ele>
        <time>2021-01-18T11:58:35Z</time>
      </trkpt>
      <trkpt lat="43.98466" lon="5.1328">
        <ele>317.37</ele>
        <time>2021-01-18T11:58:52Z</time>
      </trkpt>
      <trkpt lat="43.9848" lon="5.13299">
        <ele>318.81</ele>
        <time>2021-01-18T11:59:10Z</time>
      </trkpt>
      <trkpt lat="43.98485" lon="5.13305">
        <ele>318.81</ele>
        <time>2021-01-18T11:59:16Z</time>
      </trkpt>
      <trkpt lat="43.98504" lon="5.13304">
        <ele>315.45</ele>
        <time>2021-01-18T11:59:34Z</time>
      </trkpt>
      <trkpt lat="43.98526" lon="5.13292">
        <ele>314.01</ele>
        <time>2021-01-18T11:59:55Z</time>
      </trkpt>
      <trkpt lat="43.98531" lon="5.1329">
        <ele>313.53</ele>
        <time>2021-01-18T12:00:00Z</time>
      </trkpt>
      <trkpt lat="43.98542" lon="5.1331">
        <ele>311.12</ele>
        <time>2021-01-18T12:00:19Z</time>
      </trkpt>
      <trkpt lat="43.98533" lon="5.13337">
        <ele>309.68</ele>
        <time>2021-01-18T12:00:41Z</time>
      </trkpt>
      <trkpt lat="43.9852" lon="5.1336">
        <ele>309.2</ele>
        <time>2021-01-18T12:00:57Z</time>
      </trkpt>
      <trkpt lat="43.98516" lon="5.13374">
        <ele>307.76</ele>
        <time>2021-01-18T12:01:09Z</time>
      </trkpt>
      <trkpt lat="43.98531" lon="5.13397">
        <ele>305.84</ele>
        <time>2021-01-18T12:01:26Z</time>
      </trkpt>
      <trkpt lat="43.98549" lon="5.13414">
        <ele>305.36</ele>
        <time>2021-01-18T12:01:43Z</time>
      </trkpt>
      <trkpt lat="43.98571" lon="5.13426">
        <ele>304.88</ele>
        <time>2021-01-18T12:02:01Z</time>
      </trkpt>
      <trkpt lat="43.98578" lon="5.13428">
        <ele>304.39</ele>
        <time>2021-01-18T12:02:07Z</time>
      </trkpt>
      <trkpt lat="43.98595" lon="5.1343">
        <ele>304.88</ele>
        <time>2021-01-18T12:02:24Z</time>
      </trkpt>
      <trkpt lat="43.98599" lon="5.13432">
        <ele>305.36</ele>
        <time>2021-01-18T12:02:44Z</time>
      </trkpt>
      <trkpt lat="43.986" lon="5.1343">
        <ele>305.84</ele>
        <time>2021-01-18T12:03:24Z</time>
      </trkpt>
      <trkpt lat="43.98602" lon="5.1343">
        <ele>305.84</ele>
        <time>2021-01-18T12:04:09Z</time>
      </trkpt>
      <trkpt lat="43.98613" lon="5.13439">
        <ele>307.76</ele>
        <time>2021-01-18T12:04:26Z</time>
      </trkpt>
      <trkpt lat="43.98615" lon="5.13443">
        <ele>308.24</ele>
        <time>2021-01-18T12:04:31Z</time>
      </trkpt>
      <trkpt lat="43.98625" lon="5.13462">
        <ele>309.2</ele>
        <time>2021-01-18T12:04:45Z</time>
      </trkpt>
      <trkpt lat="43.98626" lon="5.13468">
        <ele>309.68</ele>
        <time>2021-01-18T12:04:49Z</time>
      </trkpt>
      <trkpt lat="43.98639" lon="5.13489">
        <ele>309.2</ele>
        <time>2021-01-18T12:05:05Z</time>
      </trkpt>
      <trkpt lat="43.98647" lon="5.13502">
        <ele>307.76</ele>
        <time>2021-01-18T12:05:16Z</time>
      </trkpt>
      <trkpt lat="43.98647" lon="5.13503">
        <ele>307.76</ele>
        <time>2021-01-18T12:05:17Z</time>
      </trkpt>
      <trkpt lat="43.98657" lon="5.13525">
        <ele>305.84</ele>
        <time>2021-01-18T12:05:34Z</time>
      </trkpt>
      <trkpt lat="43.98667" lon="5.13542">
        <ele>305.84</ele>
        <time>2021-01-18T12:05:48Z</time>
      </trkpt>
      <trkpt lat="43.98682" lon="5.13555">
        <ele>305.84</ele>
        <time>2021-01-18T12:06:04Z</time>
      </trkpt>
      <trkpt lat="43.98685" lon="5.13558">
        <ele>305.84</ele>
        <time>2021-01-18T12:06:07Z</time>
      </trkpt>
      <trkpt lat="43.98687" lon="5.13575">
        <ele>307.76</ele>
        <time>2021-01-18T12:06:25Z</time>
      </trkpt>
      <trkpt lat="43.98675" lon="5.13601">
        <ele>309.2</ele>
        <time>2021-01-18T12:06:45Z</time>
      </trkpt>
      <trkpt lat="43.98674" lon="5.13602">
        <ele>309.2</ele>
        <time>2021-01-18T12:06:46Z</time>
      </trkpt>
      <trkpt lat="43.98661" lon="5.13615">
        <ele>310.16</ele>
        <time>2021-01-18T12:06:59Z</time>
      </trkpt>
      <trkpt lat="43.98658" lon="5.13622">
        <ele>310.16</ele>
        <time>2021-01-18T12:07:04Z</time>
      </trkpt>
      <trkpt lat="43.98645" lon="5.13643">
        <ele>311.6</ele>
        <time>2021-01-18T12:07:21Z</time>
      </trkpt>
      <trkpt lat="43.98632" lon="5.13661">
        <ele>313.53</ele>
        <time>2021-01-18T12:07:40Z</time>
      </trkpt>
      <trkpt lat="43.9862" lon="5.1368">
        <ele>315.93</ele>
        <time>2021-01-18T12:07:57Z</time>
      </trkpt>
      <trkpt lat="43.98615" lon="5.13689">
        <ele>316.41</ele>
        <time>2021-01-18T12:08:05Z</time>
      </trkpt>
      <trkpt lat="43.98604" lon="5.13712">
        <ele>317.85</ele>
        <time>2021-01-18T12:08:23Z</time>
      </trkpt>
      <trkpt lat="43.98593" lon="5.13736">
        <ele>318.81</ele>
        <time>2021-01-18T12:08:41Z</time>
      </trkpt>
      <trkpt lat="43.98588" lon="5.1376">
        <ele>319.78</ele>
        <time>2021-01-18T12:08:57Z</time>
      </trkpt>
      <trkpt lat="43.98582" lon="5.1378">
        <ele>320.26</ele>
        <time>2021-01-18T12:09:11Z</time>
      </trkpt>
      <trkpt lat="43.98582" lon="5.1379">
        <ele>320.26</ele>
        <time>2021-01-18T12:09:17Z</time>
      </trkpt>
      <trkpt lat="43.98584" lon="5.13802">
        <ele>320.26</ele>
        <time>2021-01-18T12:09:24Z</time>
      </trkpt>
      <trkpt lat="43.98592" lon="5.13816">
        <ele>320.26</ele>
        <time>2021-01-18T12:09:35Z</time>
      </trkpt>
      <trkpt lat="43.98602" lon="5.13842">
        <ele>321.7</ele>
        <time>2021-01-18T12:09:53Z</time>
      </trkpt>
      <trkpt lat="43.98612" lon="5.13864">
        <ele>323.14</ele>
        <time>2021-01-18T12:10:11Z</time>
      </trkpt>
      <trkpt lat="43.98614" lon="5.13874">
        <ele>323.62</ele>
        <time>2021-01-18T12:10:17Z</time>
      </trkpt>
      <trkpt lat="43.98617" lon="5.13892">
        <ele>323.62</ele>
        <time>2021-01-18T12:10:28Z</time>
      </trkpt>
      <trkpt lat="43.98619" lon="5.139">
        <ele>323.62</ele>
        <time>2021-01-18T12:10:33Z</time>
      </trkpt>
      <trkpt lat="43.9863" lon="5.13913">
        <ele>323.62</ele>
        <time>2021-01-18T12:10:48Z</time>
      </trkpt>
      <trkpt lat="43.98635" lon="5.13918">
        <ele>323.14</ele>
        <time>2021-01-18T12:11:07Z</time>
      </trkpt>
      <trkpt lat="43.98635" lon="5.13916">
        <ele>323.14</ele>
        <time>2021-01-18T12:11:39Z</time>
      </trkpt>
      <trkpt lat="43.98636" lon="5.13915">
        <ele>322.66</ele>
        <time>2021-01-18T12:12:21Z</time>
      </trkpt>
      <trkpt lat="43.9864" lon="5.13923">
        <ele>322.66</ele>
        <time>2021-01-18T12:12:47Z</time>
      </trkpt>
      <trkpt lat="43.98637" lon="5.13917">
        <ele>322.66</ele>
        <time>2021-01-18T12:13:10Z</time>
      </trkpt>
      <trkpt lat="43.98632" lon="5.13917">
        <ele>322.66</ele>
        <time>2021-01-18T12:13:40Z</time>
      </trkpt>
      <trkpt lat="43.98631" lon="5.13915">
        <ele>322.66</ele>
        <time>2021-01-18T12:14:10Z</time>
      </trkpt>
      <trkpt lat="43.98627" lon="5.13922">
        <ele>322.66</ele>
        <time>2021-01-18T12:14:41Z</time>
      </trkpt>
      <trkpt lat="43.98626" lon="5.13923">
        <ele>322.66</ele>
        <time>2021-01-18T12:14:42Z</time>
      </trkpt>
      <trkpt lat="43.98616" lon="5.13947">
        <ele>319.78</ele>
        <time>2021-01-18T12:15:01Z</time>
      </trkpt>
      <trkpt lat="43.98616" lon="5.13952">
        <ele>318.81</ele>
        <time>2021-01-18T12:15:04Z</time>
      </trkpt>
      <trkpt lat="43.98616" lon="5.13963">
        <ele>317.85</ele>
        <time>2021-01-18T12:15:10Z</time>
      </trkpt>
      <trkpt lat="43.98616" lon="5.13986">
        <ele>314.97</ele>
        <time>2021-01-18T12:15:27Z</time>
      </trkpt>
      <trkpt lat="43.98614" lon="5.14011">
        <ele>312.57</ele>
        <time>2021-01-18T12:15:45Z</time>
      </trkpt>
      <trkpt lat="43.9861" lon="5.14037">
        <ele>311.12</ele>
        <time>2021-01-18T12:16:01Z</time>
      </trkpt>
      <trkpt lat="43.98607" lon="5.14061">
        <ele>308.72</ele>
        <time>2021-01-18T12:16:16Z</time>
      </trkpt>
      <trkpt lat="43.98602" lon="5.1408">
        <ele>305.84</ele>
        <time>2021-01-18T12:16:32Z</time>
      </trkpt>
      <trkpt lat="43.98604" lon="5.14094">
        <ele>302.47</ele>
        <time>2021-01-18T12:16:46Z</time>
      </trkpt>
      <trkpt lat="43.98605" lon="5.14105">
        <ele>300.55</ele>
        <time>2021-01-18T12:17:03Z</time>
      </trkpt>
      <trkpt lat="43.98593" lon="5.14112">
        <ele>298.63</ele>
        <time>2021-01-18T12:17:25Z</time>
      </trkpt>
      <trkpt lat="43.98596" lon="5.14116">
        <ele>295.74</ele>
        <time>2021-01-18T12:17:41Z</time>
      </trkpt>
      <trkpt lat="43.98598" lon="5.14119">
        <ele>294.78</ele>
        <time>2021-01-18T12:17:47Z</time>
      </trkpt>
      <trkpt lat="43.98603" lon="5.14127">
        <ele>290.94</ele>
        <time>2021-01-18T12:18:03Z</time>
      </trkpt>
      <trkpt lat="43.98608" lon="5.14126">
        <ele>290.46</ele>
        <time>2021-01-18T12:18:07Z</time>
      </trkpt>
      <trkpt lat="43.98619" lon="5.14124">
        <ele>287.09</ele>
        <time>2021-01-18T12:18:24Z</time>
      </trkpt>
      <trkpt lat="43.9862" lon="5.14126">
        <ele>284.21</ele>
        <time>2021-01-18T12:18:37Z</time>
      </trkpt>
      <trkpt lat="43.98618" lon="5.14136">
        <ele>281.32</ele>
        <time>2021-01-18T12:18:49Z</time>
      </trkpt>
      <trkpt lat="43.98613" lon="5.14139">
        <ele>280.36</ele>
        <time>2021-01-18T12:18:54Z</time>
      </trkpt>
      <trkpt lat="43.9861" lon="5.1414">
        <ele>279.4</ele>
        <time>2021-01-18T12:18:58Z</time>
      </trkpt>
      <trkpt lat="43.98614" lon="5.14136">
        <ele>276.04</ele>
        <time>2021-01-18T12:19:13Z</time>
      </trkpt>
      <trkpt lat="43.9863" lon="5.14134">
        <ele>273.15</ele>
        <time>2021-01-18T12:19:27Z</time>
      </trkpt>
      <trkpt lat="43.98641" lon="5.14148">
        <ele>270.27</ele>
        <time>2021-01-18T12:19:45Z</time>
      </trkpt>
      <trkpt lat="43.98636" lon="5.14158">
        <ele>266.9</ele>
        <time>2021-01-18T12:20:01Z</time>
      </trkpt>
      <trkpt lat="43.98633" lon="5.14162">
        <ele>264.5</ele>
        <time>2021-01-18T12:20:21Z</time>
      </trkpt>
      <trkpt lat="43.98631" lon="5.1417">
        <ele>261.62</ele>
        <time>2021-01-18T12:20:38Z</time>
      </trkpt>
      <trkpt lat="43.98636" lon="5.14183">
        <ele>259.21</ele>
        <time>2021-01-18T12:20:57Z</time>
      </trkpt>
      <trkpt lat="43.98634" lon="5.14166">
        <ele>258.73</ele>
        <time>2021-01-18T12:21:28Z</time>
      </trkpt>
      <trkpt lat="43.98641" lon="5.14163">
        <ele>258.73</ele>
        <time>2021-01-18T12:21:59Z</time>
      </trkpt>
      <trkpt lat="43.98637" lon="5.14158">
        <ele>259.21</ele>
        <time>2021-01-18T12:22:31Z</time>
      </trkpt>
      <trkpt lat="43.9863" lon="5.14159">
        <ele>259.21</ele>
        <time>2021-01-18T12:23:03Z</time>
      </trkpt>
      <trkpt lat="43.98625" lon="5.14181">
        <ele>259.21</ele>
        <time>2021-01-18T12:23:22Z</time>
      </trkpt>
      <trkpt lat="43.98631" lon="5.14182">
        <ele>259.21</ele>
        <time>2021-01-18T12:23:49Z</time>
      </trkpt>
      <trkpt lat="43.98631" lon="5.14187">
        <ele>259.21</ele>
        <time>2021-01-18T12:24:18Z</time>
      </trkpt>
      <trkpt lat="43.98635" lon="5.14185">
        <ele>259.21</ele>
        <time>2021-01-18T12:24:41Z</time>
      </trkpt>
      <trkpt lat="43.98628" lon="5.14178">
        <ele>259.21</ele>
        <time>2021-01-18T12:25:10Z</time>
      </trkpt>
      <trkpt lat="43.98631" lon="5.14174">
        <ele>259.21</ele>
        <time>2021-01-18T12:25:37Z</time>
      </trkpt>
      <trkpt lat="43.98635" lon="5.14175">
        <ele>259.21</ele>
        <time>2021-01-18T12:25:54Z</time>
      </trkpt>
      <trkpt lat="43.98643" lon="5.14189">
        <ele>259.21</ele>
        <time>2021-01-18T12:26:12Z</time>
      </trkpt>
      <trkpt lat="43.9866" lon="5.14203">
        <ele>257.77</ele>
        <time>2021-01-18T12:26:29Z</time>
      </trkpt>
      <trkpt lat="43.98665" lon="5.14202">
        <ele>256.81</ele>
        <time>2021-01-18T12:26:35Z</time>
      </trkpt>
      <trkpt lat="43.98689" lon="5.14193">
        <ele>253.93</ele>
        <time>2021-01-18T12:26:55Z</time>
      </trkpt>
      <trkpt lat="43.98708" lon="5.14191">
        <ele>251.52</ele>
        <time>2021-01-18T12:27:10Z</time>
      </trkpt>
      <trkpt lat="43.98727" lon="5.14187">
        <ele>250.08</ele>
        <time>2021-01-18T12:27:25Z</time>
      </trkpt>
      <trkpt lat="43.98737" lon="5.1418">
        <ele>248.64</ele>
        <time>2021-01-18T12:27:35Z</time>
      </trkpt>
      <trkpt lat="43.98756" lon="5.14172">
        <ele>246.23</ele>
        <time>2021-01-18T12:27:50Z</time>
      </trkpt>
      <trkpt lat="43.9877" lon="5.14166">
        <ele>244.31</ele>
        <time>2021-01-18T12:28:03Z</time>
      </trkpt>
      <trkpt lat="43.98796" lon="5.14161">
        <ele>240.95</ele>
        <time>2021-01-18T12:28:23Z</time>
      </trkpt>
      <trkpt lat="43.98803" lon="5.14165">
        <ele>240.47</ele>
        <time>2021-01-18T12:28:27Z</time>
      </trkpt>
      <trkpt lat="43.9882" lon="5.1419">
        <ele>236.62</ele>
        <time>2021-01-18T12:28:45Z</time>
      </trkpt>
      <trkpt lat="43.98824" lon="5.14199">
        <ele>235.66</ele>
        <time>2021-01-18T12:28:52Z</time>
      </trkpt>
      <trkpt lat="43.98834" lon="5.14227">
        <ele>234.22</ele>
        <time>2021-01-18T12:29:10Z</time>
      </trkpt>
      <trkpt lat="43.98839" lon="5.14247">
        <ele>234.22</ele>
        <time>2021-01-18T12:29:29Z</time>
      </trkpt>
      <trkpt lat="43.98823" lon="5.14263">
        <ele>232.78</ele>
        <time>2021-01-18T12:29:50Z</time>
      </trkpt>
      <trkpt lat="43.98803" lon="5.14275">
        <ele>233.26</ele>
        <time>2021-01-18T12:30:09Z</time>
      </trkpt>
      <trkpt lat="43.98776" lon="5.14284">
        <ele>233.26</ele>
        <time>2021-01-18T12:30:31Z</time>
      </trkpt>
      <trkpt lat="43.98765" lon="5.14284">
        <ele>232.78</ele>
        <time>2021-01-18T12:30:41Z</time>
      </trkpt>
      <trkpt lat="43.98744" lon="5.14286">
        <ele>232.78</ele>
        <time>2021-01-18T12:31:03Z</time>
      </trkpt>
      <trkpt lat="43.98719" lon="5.14285">
        <ele>231.33</ele>
        <time>2021-01-18T12:31:24Z</time>
      </trkpt>
      <trkpt lat="43.98696" lon="5.14292">
        <ele>231.81</ele>
        <time>2021-01-18T12:31:42Z</time>
      </trkpt>
      <trkpt lat="43.98687" lon="5.14295">
        <ele>232.3</ele>
        <time>2021-01-18T12:31:48Z</time>
      </trkpt>
      <trkpt lat="43.98681" lon="5.143">
        <ele>232.3</ele>
        <time>2021-01-18T12:31:55Z</time>
      </trkpt>
      <trkpt lat="43.98677" lon="5.14309">
        <ele>232.3</ele>
        <time>2021-01-18T12:32:16Z</time>
      </trkpt>
      <trkpt lat="43.98671" lon="5.14311">
        <ele>231.81</ele>
        <time>2021-01-18T12:32:46Z</time>
      </trkpt>
      <trkpt lat="43.9867" lon="5.14319">
        <ele>231.81</ele>
        <time>2021-01-18T12:33:17Z</time>
      </trkpt>
      <trkpt lat="43.98671" lon="5.14319">
        <ele>231.81</ele>
        <time>2021-01-18T12:33:48Z</time>
      </trkpt>
      <trkpt lat="43.98668" lon="5.14319">
        <ele>231.81</ele>
        <time>2021-01-18T12:34:19Z</time>
      </trkpt>
      <trkpt lat="43.98666" lon="5.14327">
        <ele>231.81</ele>
        <time>2021-01-18T12:34:33Z</time>
      </trkpt>
      <trkpt lat="43.98668" lon="5.14327">
        <ele>236.14</ele>
        <time>2021-01-18T12:34:40Z</time>
      </trkpt>
      <trkpt lat="43.98668" lon="5.14327">
        <ele>235.66</ele>
        <time>2021-01-18T12:34:41Z</time>
      </trkpt>
      <trkpt lat="43.98675" lon="5.14326">
        <ele>239.02</ele>
        <time>2021-01-18T12:35:00Z</time>
      </trkpt>
      <trkpt lat="43.98692" lon="5.14328">
        <ele>241.91</ele>
        <time>2021-01-18T12:35:16Z</time>
      </trkpt>
      <trkpt lat="43.98714" lon="5.1433">
        <ele>244.31</ele>
        <time>2021-01-18T12:35:36Z</time>
      </trkpt>
      <trkpt lat="43.98725" lon="5.1433">
        <ele>246.23</ele>
        <time>2021-01-18T12:35:47Z</time>
      </trkpt>
      <trkpt lat="43.98741" lon="5.14322">
        <ele>249.12</ele>
        <time>2021-01-18T12:36:04Z</time>
      </trkpt>
      <trkpt lat="43.98763" lon="5.14323">
        <ele>252.48</ele>
        <time>2021-01-18T12:36:27Z</time>
      </trkpt>
      <trkpt lat="43.98774" lon="5.1434">
        <ele>255.37</ele>
        <time>2021-01-18T12:36:47Z</time>
      </trkpt>
      <trkpt lat="43.98788" lon="5.14351">
        <ele>257.77</ele>
        <time>2021-01-18T12:37:04Z</time>
      </trkpt>
      <trkpt lat="43.98795" lon="5.14359">
        <ele>260.17</ele>
        <time>2021-01-18T12:37:25Z</time>
      </trkpt>
      <trkpt lat="43.98796" lon="5.14359">
        <ele>260.65</ele>
        <time>2021-01-18T12:37:55Z</time>
      </trkpt>
      <trkpt lat="43.98795" lon="5.14357">
        <ele>260.17</ele>
        <time>2021-01-18T12:38:22Z</time>
      </trkpt>
      <trkpt lat="43.98795" lon="5.14359">
        <ele>260.17</ele>
        <time>2021-01-18T12:38:58Z</time>
      </trkpt>
      <trkpt lat="43.98803" lon="5.14382">
        <ele>262.58</ele>
        <time>2021-01-18T12:39:16Z</time>
      </trkpt>
      <trkpt lat="43.98806" lon="5.14392">
        <ele>263.54</ele>
        <time>2021-01-18T12:39:23Z</time>
      </trkpt>
      <trkpt lat="43.98811" lon="5.14411">
        <ele>265.94</ele>
        <time>2021-01-18T12:39:39Z</time>
      </trkpt>
      <trkpt lat="43.98823" lon="5.1442">
        <ele>268.35</ele>
        <time>2021-01-18T12:39:56Z</time>
      </trkpt>
      <trkpt lat="43.98833" lon="5.14417">
        <ele>269.31</ele>
        <time>2021-01-18T12:40:04Z</time>
      </trkpt>
      <trkpt lat="43.98851" lon="5.14415">
        <ele>272.19</ele>
        <time>2021-01-18T12:40:21Z</time>
      </trkpt>
      <trkpt lat="43.98855" lon="5.14426">
        <ele>275.07</ele>
        <time>2021-01-18T12:40:34Z</time>
      </trkpt>
      <trkpt lat="43.9884" lon="5.14428">
        <ele>278.44</ele>
        <time>2021-01-18T12:40:52Z</time>
      </trkpt>
      <trkpt lat="43.98837" lon="5.1444">
        <ele>280.84</ele>
        <time>2021-01-18T12:41:10Z</time>
      </trkpt>
      <trkpt lat="43.98847" lon="5.14447">
        <ele>284.21</ele>
        <time>2021-01-18T12:41:27Z</time>
      </trkpt>
      <trkpt lat="43.98839" lon="5.14457">
        <ele>286.61</ele>
        <time>2021-01-18T12:41:43Z</time>
      </trkpt>
      <trkpt lat="43.9883" lon="5.14471">
        <ele>289.49</ele>
        <time>2021-01-18T12:42:01Z</time>
      </trkpt>
      <trkpt lat="43.9882" lon="5.14481">
        <ele>292.86</ele>
        <time>2021-01-18T12:42:17Z</time>
      </trkpt>
      <trkpt lat="43.98813" lon="5.14489">
        <ele>295.74</ele>
        <time>2021-01-18T12:42:37Z</time>
      </trkpt>
      <trkpt lat="43.98813" lon="5.14491">
        <ele>296.22</ele>
        <time>2021-01-18T12:43:07Z</time>
      </trkpt>
      <trkpt lat="43.98815" lon="5.14492">
        <ele>295.74</ele>
        <time>2021-01-18T12:43:38Z</time>
      </trkpt>
      <trkpt lat="43.98818" lon="5.14497">
        <ele>296.7</ele>
        <time>2021-01-18T12:44:11Z</time>
      </trkpt>
      <trkpt lat="43.98826" lon="5.14503">
        <ele>299.11</ele>
        <time>2021-01-18T12:44:29Z</time>
      </trkpt>
      <trkpt lat="43.98835" lon="5.14498">
        <ele>301.99</ele>
        <time>2021-01-18T12:44:45Z</time>
      </trkpt>
      <trkpt lat="43.98847" lon="5.14513">
        <ele>304.88</ele>
        <time>2021-01-18T12:45:04Z</time>
      </trkpt>
      <trkpt lat="43.98859" lon="5.14535">
        <ele>308.24</ele>
        <time>2021-01-18T12:45:29Z</time>
      </trkpt>
      <trkpt lat="43.98872" lon="5.14555">
        <ele>311.12</ele>
        <time>2021-01-18T12:45:52Z</time>
      </trkpt>
      <trkpt lat="43.98885" lon="5.14576">
        <ele>313.53</ele>
        <time>2021-01-18T12:46:13Z</time>
      </trkpt>
      <trkpt lat="43.98886" lon="5.14577">
        <ele>313.53</ele>
        <time>2021-01-18T12:46:14Z</time>
      </trkpt>
      <trkpt lat="43.98895" lon="5.14589">
        <ele>314.97</ele>
        <time>2021-01-18T12:46:26Z</time>
      </trkpt>
      <trkpt lat="43.98907" lon="5.14609">
        <ele>316.89</ele>
        <time>2021-01-18T12:46:45Z</time>
      </trkpt>
      <trkpt lat="43.98919" lon="5.14632">
        <ele>319.78</ele>
        <time>2021-01-18T12:47:08Z</time>
      </trkpt>
      <trkpt lat="43.9892" lon="5.14634">
        <ele>319.78</ele>
        <time>2021-01-18T12:47:09Z</time>
      </trkpt>
      <trkpt lat="43.98924" lon="5.14641">
        <ele>321.22</ele>
        <time>2021-01-18T12:47:14Z</time>
      </trkpt>
      <trkpt lat="43.98935" lon="5.1466">
        <ele>322.18</ele>
        <time>2021-01-18T12:47:31Z</time>
      </trkpt>
      <trkpt lat="43.98948" lon="5.14681">
        <ele>324.1</ele>
        <time>2021-01-18T12:47:50Z</time>
      </trkpt>
      <trkpt lat="43.98959" lon="5.14701">
        <ele>325.06</ele>
        <time>2021-01-18T12:48:06Z</time>
      </trkpt>
      <trkpt lat="43.98973" lon="5.1473">
        <ele>326.99</ele>
        <time>2021-01-18T12:48:27Z</time>
      </trkpt>
      <trkpt lat="43.98986" lon="5.14754">
        <ele>328.43</ele>
        <time>2021-01-18T12:48:47Z</time>
      </trkpt>
      <trkpt lat="43.98997" lon="5.14781">
        <ele>328.43</ele>
        <time>2021-01-18T12:49:06Z</time>
      </trkpt>
      <trkpt lat="43.99007" lon="5.14801">
        <ele>326.5</ele>
        <time>2021-01-18T12:49:23Z</time>
      </trkpt>
      <trkpt lat="43.99018" lon="5.14823">
        <ele>323.62</ele>
        <time>2021-01-18T12:49:42Z</time>
      </trkpt>
      <trkpt lat="43.99028" lon="5.1485">
        <ele>322.18</ele>
        <time>2021-01-18T12:50:00Z</time>
      </trkpt>
      <trkpt lat="43.9904" lon="5.14871">
        <ele>320.26</ele>
        <time>2021-01-18T12:50:18Z</time>
      </trkpt>
      <trkpt lat="43.99047" lon="5.14883">
        <ele>319.78</ele>
        <time>2021-01-18T12:50:29Z</time>
      </trkpt>
      <trkpt lat="43.9905" lon="5.14885">
        <ele>319.3</ele>
        <time>2021-01-18T12:50:56Z</time>
      </trkpt>
      <trkpt lat="43.99048" lon="5.14886">
        <ele>318.33</ele>
        <time>2021-01-18T12:51:21Z</time>
      </trkpt>
      <trkpt lat="43.9905" lon="5.14888">
        <ele>318.81</ele>
        <time>2021-01-18T12:51:50Z</time>
      </trkpt>
      <trkpt lat="43.99052" lon="5.14888">
        <ele>318.81</ele>
        <time>2021-01-18T12:52:09Z</time>
      </trkpt>
      <trkpt lat="43.99056" lon="5.14889">
        <ele>319.3</ele>
        <time>2021-01-18T12:52:13Z</time>
      </trkpt>
      <trkpt lat="43.9906" lon="5.1489">
        <ele>318.81</ele>
        <time>2021-01-18T12:52:17Z</time>
      </trkpt>
      <trkpt lat="43.99076" lon="5.14889">
        <ele>318.81</ele>
        <time>2021-01-18T12:52:34Z</time>
      </trkpt>
      <trkpt lat="43.99084" lon="5.14889">
        <ele>317.85</ele>
        <time>2021-01-18T12:52:41Z</time>
      </trkpt>
      <trkpt lat="43.991" lon="5.14888">
        <ele>316.41</ele>
        <time>2021-01-18T12:52:52Z</time>
      </trkpt>
      <trkpt lat="43.99106" lon="5.14888">
        <ele>315.93</ele>
        <time>2021-01-18T12:52:56Z</time>
      </trkpt>
      <trkpt lat="43.99118" lon="5.14888">
        <ele>313.53</ele>
        <time>2021-01-18T12:53:09Z</time>
      </trkpt>
      <trkpt lat="43.99125" lon="5.14887">
        <ele>313.05</ele>
        <time>2021-01-18T12:53:14Z</time>
      </trkpt>
      <trkpt lat="43.99147" lon="5.14884">
        <ele>310.16</ele>
        <time>2021-01-18T12:53:33Z</time>
      </trkpt>
      <trkpt lat="43.99165" lon="5.14873">
        <ele>308.24</ele>
        <time>2021-01-18T12:53:50Z</time>
      </trkpt>
      <trkpt lat="43.99181" lon="5.14854">
        <ele>308.24</ele>
        <time>2021-01-18T12:54:08Z</time>
      </trkpt>
      <trkpt lat="43.99201" lon="5.14843">
        <ele>308.72</ele>
        <time>2021-01-18T12:54:26Z</time>
      </trkpt>
      <trkpt lat="43.99218" lon="5.14834">
        <ele>309.68</ele>
        <time>2021-01-18T12:54:43Z</time>
      </trkpt>
      <trkpt lat="43.99228" lon="5.14832">
        <ele>311.12</ele>
        <time>2021-01-18T12:54:54Z</time>
      </trkpt>
      <trkpt lat="43.99233" lon="5.14829">
        <ele>310.64</ele>
        <time>2021-01-18T12:54:59Z</time>
      </trkpt>
      <trkpt lat="43.99253" lon="5.14822">
        <ele>311.12</ele>
        <time>2021-01-18T12:55:17Z</time>
      </trkpt>
      <trkpt lat="43.99256" lon="5.14821">
        <ele>311.12</ele>
        <time>2021-01-18T12:55:19Z</time>
      </trkpt>
      <trkpt lat="43.99259" lon="5.1482">
        <ele>311.12</ele>
        <time>2021-01-18T12:55:22Z</time>
      </trkpt>
      <trkpt lat="43.99283" lon="5.14813">
        <ele>310.16</ele>
        <time>2021-01-18T12:55:39Z</time>
      </trkpt>
      <trkpt lat="43.99307" lon="5.14804">
        <ele>309.68</ele>
        <time>2021-01-18T12:55:57Z</time>
      </trkpt>
      <trkpt lat="43.99329" lon="5.14797">
        <ele>309.2</ele>
        <time>2021-01-18T12:56:17Z</time>
      </trkpt>
      <trkpt lat="43.99343" lon="5.1479">
        <ele>309.2</ele>
        <time>2021-01-18T12:56:31Z</time>
      </trkpt>
      <trkpt lat="43.99364" lon="5.14781">
        <ele>309.2</ele>
        <time>2021-01-18T12:56:48Z</time>
      </trkpt>
      <trkpt lat="43.99383" lon="5.14775">
        <ele>308.72</ele>
        <time>2021-01-18T12:57:04Z</time>
      </trkpt>
      <trkpt lat="43.99401" lon="5.14776">
        <ele>309.2</ele>
        <time>2021-01-18T12:57:19Z</time>
      </trkpt>
    </trkseg>
  </trk>
</gpx>